<?xml version="1.0" encoding="UTF-8" standalone="no" ?>
<gpx xmlns="http://www.topografix.com/GPX/1/1" xmlns:xsi="http://www.w3.org/2001/XMLSchema-instance" xsi:schemaLocation="http://www.topografix.com/GPX/1/1 http://www.topografix.com/GPX/1/1/gpx.xsd" version="1.1" creator="VisuGPX - https://www.visugpx.com">
  <metadata>
    <name>A l ouest de Montpellier-Cournonterral</name>
  </metadata>
  <trk>
    <name><![CDATA[A l ouest de Montpellier-Cournonterral]]></name>
    <extensions>
      <line xmlns="http://www.topografix.com/GPX/gpx_style/0/2">
        <color>FF0000</color>
        <width>4</width>
      </line>
    </extensions>
    <trkseg>
      <trkpt lat="43.61515" lon="3.82564">
        <ele>57</ele>
        <time>2021-01-28T11:09:56Z</time>
      </trkpt>
      <trkpt lat="43.61585" lon="3.81948">
        <ele>39.2</ele>
      </trkpt>
      <trkpt lat="43.61423" lon="3.81336">
        <ele>44.3</ele>
      </trkpt>
      <trkpt lat="43.61382" lon="3.80622">
        <ele>55.4</ele>
      </trkpt>
      <trkpt lat="43.61446" lon="3.80045">
        <ele>66</ele>
      </trkpt>
      <trkpt lat="43.61376" lon="3.79879">
        <ele>63.3</ele>
      </trkpt>
      <trkpt lat="43.61433" lon="3.79665">
        <ele>55.4</ele>
      </trkpt>
      <trkpt lat="43.6146" lon="3.79443">
        <ele>52.2</ele>
      </trkpt>
      <trkpt lat="43.61565" lon="3.79014">
        <ele>58.8</ele>
      </trkpt>
      <trkpt lat="43.61551" lon="3.78931">
        <ele>58.7</ele>
      </trkpt>
      <trkpt lat="43.61498" lon="3.7885">
        <ele>69.7</ele>
      </trkpt>
      <trkpt lat="43.61573" lon="3.78784">
        <ele>60.1</ele>
      </trkpt>
      <trkpt lat="43.61702" lon="3.78543">
        <ele>76.9</ele>
      </trkpt>
      <trkpt lat="43.61725" lon="3.78241">
        <ele>83.3</ele>
      </trkpt>
      <trkpt lat="43.61838" lon="3.77876">
        <ele>90.7</ele>
      </trkpt>
      <trkpt lat="43.61783" lon="3.77863">
        <ele>94.8</ele>
      </trkpt>
      <trkpt lat="43.61907" lon="3.7743">
        <ele>102.1</ele>
      </trkpt>
      <trkpt lat="43.62135" lon="3.76855">
        <ele>114.8</ele>
      </trkpt>
      <trkpt lat="43.62272" lon="3.76223">
        <ele>128.127</ele>
        <time>2021-01-28T11:10:06Z</time>
      </trkpt>
      <trkpt lat="43.62265" lon="3.76215">
        <ele>128.208</ele>
        <time>2021-01-28T11:11:33Z</time>
      </trkpt>
      <trkpt lat="43.62254" lon="3.76216">
        <ele>128.699</ele>
        <time>2021-01-28T11:11:38Z</time>
      </trkpt>
      <trkpt lat="43.62243" lon="3.7622">
        <ele>129.33</ele>
        <time>2021-01-28T11:11:43Z</time>
      </trkpt>
      <trkpt lat="43.62224" lon="3.76214">
        <ele>130.066</ele>
        <time>2021-01-28T11:11:53Z</time>
      </trkpt>
      <trkpt lat="43.62215" lon="3.76219">
        <ele>131.696</ele>
        <time>2021-01-28T11:11:59Z</time>
      </trkpt>
      <trkpt lat="43.62188" lon="3.76212">
        <ele>135.345</ele>
        <time>2021-01-28T11:12:34Z</time>
      </trkpt>
      <trkpt lat="43.62187" lon="3.76226">
        <ele>136.515</ele>
        <time>2021-01-28T11:12:45Z</time>
      </trkpt>
      <trkpt lat="43.6218" lon="3.76236">
        <ele>138.259</ele>
        <time>2021-01-28T11:12:52Z</time>
      </trkpt>
      <trkpt lat="43.62158" lon="3.76257">
        <ele>144.216</ele>
        <time>2021-01-28T11:13:19Z</time>
      </trkpt>
      <trkpt lat="43.62151" lon="3.76268">
        <ele>145.921</ele>
        <time>2021-01-28T11:13:40Z</time>
      </trkpt>
      <trkpt lat="43.62129" lon="3.76281">
        <ele>150.833</ele>
        <time>2021-01-28T11:14:26Z</time>
      </trkpt>
      <trkpt lat="43.62106" lon="3.76284">
        <ele>155.655</ele>
        <time>2021-01-28T11:15:17Z</time>
      </trkpt>
      <trkpt lat="43.62083" lon="3.76295">
        <ele>159.482</ele>
        <time>2021-01-28T11:16:09Z</time>
      </trkpt>
      <trkpt lat="43.62074" lon="3.76302">
        <ele>159.945</ele>
        <time>2021-01-28T11:16:22Z</time>
      </trkpt>
      <trkpt lat="43.62065" lon="3.76295">
        <ele>159.908</ele>
        <time>2021-01-28T11:20:24Z</time>
      </trkpt>
      <trkpt lat="43.62058" lon="3.76281">
        <ele>159.607</ele>
        <time>2021-01-28T11:20:29Z</time>
      </trkpt>
      <trkpt lat="43.62043" lon="3.76269">
        <ele>159.264</ele>
        <time>2021-01-28T11:20:34Z</time>
      </trkpt>
      <trkpt lat="43.62026" lon="3.76244">
        <ele>154.259</ele>
        <time>2021-01-28T11:20:44Z</time>
      </trkpt>
      <trkpt lat="43.61994" lon="3.76215">
        <ele>144.971</ele>
        <time>2021-01-28T11:21:00Z</time>
      </trkpt>
      <trkpt lat="43.61983" lon="3.76217">
        <ele>141.756</ele>
        <time>2021-01-28T11:21:06Z</time>
      </trkpt>
      <trkpt lat="43.61973" lon="3.76222">
        <ele>139.281</ele>
        <time>2021-01-28T11:21:11Z</time>
      </trkpt>
      <trkpt lat="43.61965" lon="3.76215">
        <ele>135.956</ele>
        <time>2021-01-28T11:21:19Z</time>
      </trkpt>
      <trkpt lat="43.61952" lon="3.7621">
        <ele>131.721</ele>
        <time>2021-01-28T11:22:06Z</time>
      </trkpt>
      <trkpt lat="43.61947" lon="3.76188">
        <ele>127.576</ele>
        <time>2021-01-28T11:22:11Z</time>
      </trkpt>
      <trkpt lat="43.61938" lon="3.76179">
        <ele>125.164</ele>
        <time>2021-01-28T11:22:17Z</time>
      </trkpt>
      <trkpt lat="43.61927" lon="3.76175">
        <ele>122.496</ele>
        <time>2021-01-28T11:22:23Z</time>
      </trkpt>
      <trkpt lat="43.61926" lon="3.76154">
        <ele>119.585</ele>
        <time>2021-01-28T11:22:28Z</time>
      </trkpt>
      <trkpt lat="43.6192" lon="3.76135">
        <ele>115.335</ele>
        <time>2021-01-28T11:22:33Z</time>
      </trkpt>
      <trkpt lat="43.61902" lon="3.76114">
        <ele>110.421</ele>
        <time>2021-01-28T11:22:38Z</time>
      </trkpt>
      <trkpt lat="43.6189" lon="3.76084">
        <ele>106.959</ele>
        <time>2021-01-28T11:22:43Z</time>
      </trkpt>
      <trkpt lat="43.61853" lon="3.76022">
        <ele>91.571</ele>
        <time>2021-01-28T11:22:58Z</time>
      </trkpt>
      <trkpt lat="43.61858" lon="3.76009">
        <ele>89.87</ele>
        <time>2021-01-28T11:24:28Z</time>
      </trkpt>
      <trkpt lat="43.61875" lon="3.75982">
        <ele>89.315</ele>
        <time>2021-01-28T11:24:33Z</time>
      </trkpt>
      <trkpt lat="43.61934" lon="3.7591">
        <ele>91.05</ele>
        <time>2021-01-28T11:25:15Z</time>
      </trkpt>
      <trkpt lat="43.61948" lon="3.759">
        <ele>91.527</ele>
        <time>2021-01-28T11:25:20Z</time>
      </trkpt>
      <trkpt lat="43.61968" lon="3.7588">
        <ele>88.943</ele>
        <time>2021-01-28T11:26:05Z</time>
      </trkpt>
      <trkpt lat="43.61989" lon="3.75898">
        <ele>91.759</ele>
        <time>2021-01-28T11:26:36Z</time>
      </trkpt>
      <trkpt lat="43.61992" lon="3.75914">
        <ele>95.353</ele>
        <time>2021-01-28T11:27:00Z</time>
      </trkpt>
      <trkpt lat="43.6202" lon="3.75906">
        <ele>92.622</ele>
        <time>2021-01-28T11:27:48Z</time>
      </trkpt>
      <trkpt lat="43.62039" lon="3.75906">
        <ele>91.895</ele>
        <time>2021-01-28T11:27:59Z</time>
      </trkpt>
      <trkpt lat="43.62048" lon="3.75903">
        <ele>90.496</ele>
        <time>2021-01-28T11:28:05Z</time>
      </trkpt>
      <trkpt lat="43.62064" lon="3.75888">
        <ele>87.473</ele>
        <time>2021-01-28T11:28:17Z</time>
      </trkpt>
      <trkpt lat="43.62077" lon="3.75881">
        <ele>87.221</ele>
        <time>2021-01-28T11:28:22Z</time>
      </trkpt>
      <trkpt lat="43.62119" lon="3.75841">
        <ele>92.885</ele>
        <time>2021-01-28T11:28:43Z</time>
      </trkpt>
      <trkpt lat="43.62142" lon="3.75823">
        <ele>90.399</ele>
        <time>2021-01-28T11:28:53Z</time>
      </trkpt>
      <trkpt lat="43.62159" lon="3.75787">
        <ele>93.425</ele>
        <time>2021-01-28T11:29:23Z</time>
      </trkpt>
      <trkpt lat="43.62167" lon="3.75776">
        <ele>93.067</ele>
        <time>2021-01-28T11:29:29Z</time>
      </trkpt>
      <trkpt lat="43.62174" lon="3.75761">
        <ele>91.689</ele>
        <time>2021-01-28T11:29:34Z</time>
      </trkpt>
      <trkpt lat="43.62172" lon="3.75713">
        <ele>92.423</ele>
        <time>2021-01-28T11:29:50Z</time>
      </trkpt>
      <trkpt lat="43.62165" lon="3.75684">
        <ele>94.398</ele>
        <time>2021-01-28T11:30:00Z</time>
      </trkpt>
      <trkpt lat="43.62145" lon="3.75671">
        <ele>95.701</ele>
        <time>2021-01-28T11:30:11Z</time>
      </trkpt>
      <trkpt lat="43.62133" lon="3.75666">
        <ele>95.46</ele>
        <time>2021-01-28T11:30:27Z</time>
      </trkpt>
      <trkpt lat="43.62113" lon="3.75645">
        <ele>94.258</ele>
        <time>2021-01-28T11:32:20Z</time>
      </trkpt>
      <trkpt lat="43.62107" lon="3.75631">
        <ele>94.33</ele>
        <time>2021-01-28T11:32:41Z</time>
      </trkpt>
      <trkpt lat="43.62096" lon="3.75625">
        <ele>95.472</ele>
        <time>2021-01-28T11:32:57Z</time>
      </trkpt>
      <trkpt lat="43.62089" lon="3.75616">
        <ele>97.006</ele>
        <time>2021-01-28T11:33:16Z</time>
      </trkpt>
      <trkpt lat="43.62076" lon="3.75576">
        <ele>101.528</ele>
        <time>2021-01-28T11:34:27Z</time>
      </trkpt>
      <trkpt lat="43.62067" lon="3.75564">
        <ele>101.639</ele>
        <time>2021-01-28T11:34:39Z</time>
      </trkpt>
      <trkpt lat="43.62063" lon="3.75552">
        <ele>101.914</ele>
        <time>2021-01-28T11:34:45Z</time>
      </trkpt>
      <trkpt lat="43.62056" lon="3.75541">
        <ele>101.697</ele>
        <time>2021-01-28T11:34:50Z</time>
      </trkpt>
      <trkpt lat="43.62052" lon="3.75529">
        <ele>102.066</ele>
        <time>2021-01-28T11:34:55Z</time>
      </trkpt>
      <trkpt lat="43.62041" lon="3.75516">
        <ele>102.877</ele>
        <time>2021-01-28T11:35:44Z</time>
      </trkpt>
      <trkpt lat="43.62015" lon="3.75519">
        <ele>102.925</ele>
        <time>2021-01-28T11:36:27Z</time>
      </trkpt>
      <trkpt lat="43.62004" lon="3.75513">
        <ele>103.726</ele>
        <time>2021-01-28T11:36:53Z</time>
      </trkpt>
      <trkpt lat="43.61996" lon="3.75521">
        <ele>103.203</ele>
        <time>2021-01-28T11:37:56Z</time>
      </trkpt>
      <trkpt lat="43.61991" lon="3.75531">
        <ele>102.089</ele>
        <time>2021-01-28T11:38:01Z</time>
      </trkpt>
      <trkpt lat="43.61981" lon="3.75539">
        <ele>101.289</ele>
        <time>2021-01-28T11:38:06Z</time>
      </trkpt>
      <trkpt lat="43.61972" lon="3.7554">
        <ele>101.22</ele>
        <time>2021-01-28T11:38:11Z</time>
      </trkpt>
      <trkpt lat="43.61961" lon="3.75535">
        <ele>101.874</ele>
        <time>2021-01-28T11:38:56Z</time>
      </trkpt>
      <trkpt lat="43.61965" lon="3.7555">
        <ele>99.747</ele>
        <time>2021-01-28T11:39:44Z</time>
      </trkpt>
      <trkpt lat="43.61957" lon="3.75559">
        <ele>98.157</ele>
        <time>2021-01-28T11:39:50Z</time>
      </trkpt>
      <trkpt lat="43.61928" lon="3.75576">
        <ele>96.441</ele>
        <time>2021-01-28T11:40:05Z</time>
      </trkpt>
      <trkpt lat="43.61909" lon="3.75599">
        <ele>98.73</ele>
        <time>2021-01-28T11:40:15Z</time>
      </trkpt>
      <trkpt lat="43.61897" lon="3.75608">
        <ele>99.467</ele>
        <time>2021-01-28T11:40:20Z</time>
      </trkpt>
      <trkpt lat="43.6186" lon="3.75608">
        <ele>99.699</ele>
        <time>2021-01-28T11:40:46Z</time>
      </trkpt>
      <trkpt lat="43.61849" lon="3.75601">
        <ele>99.835</ele>
        <time>2021-01-28T11:40:51Z</time>
      </trkpt>
      <trkpt lat="43.6184" lon="3.75589">
        <ele>99.118</ele>
        <time>2021-01-28T11:40:56Z</time>
      </trkpt>
      <trkpt lat="43.61826" lon="3.75554">
        <ele>97.985</ele>
        <time>2021-01-28T11:41:06Z</time>
      </trkpt>
      <trkpt lat="43.61756" lon="3.7544">
        <ele>101.83</ele>
        <time>2021-01-28T11:41:41Z</time>
      </trkpt>
      <trkpt lat="43.61729" lon="3.75407">
        <ele>103.016</ele>
        <time>2021-01-28T11:41:51Z</time>
      </trkpt>
      <trkpt lat="43.6171" lon="3.75376">
        <ele>102.318</ele>
        <time>2021-01-28T11:42:01Z</time>
      </trkpt>
      <trkpt lat="43.61705" lon="3.75338">
        <ele>101.366</ele>
        <time>2021-01-28T11:42:11Z</time>
      </trkpt>
      <trkpt lat="43.61695" lon="3.75319">
        <ele>99.391</ele>
        <time>2021-01-28T11:42:16Z</time>
      </trkpt>
      <trkpt lat="43.61675" lon="3.7529">
        <ele>101.591</ele>
        <time>2021-01-28T11:42:26Z</time>
      </trkpt>
      <trkpt lat="43.61669" lon="3.75272">
        <ele>102.317</ele>
        <time>2021-01-28T11:42:31Z</time>
      </trkpt>
      <trkpt lat="43.61672" lon="3.75227">
        <ele>104.554</ele>
        <time>2021-01-28T11:42:41Z</time>
      </trkpt>
      <trkpt lat="43.617" lon="3.75183">
        <ele>103.213</ele>
        <time>2021-01-28T11:43:01Z</time>
      </trkpt>
      <trkpt lat="43.61704" lon="3.75167">
        <ele>105.598</ele>
        <time>2021-01-28T11:43:06Z</time>
      </trkpt>
      <trkpt lat="43.61705" lon="3.75151">
        <ele>107.645</ele>
        <time>2021-01-28T11:43:11Z</time>
      </trkpt>
      <trkpt lat="43.61712" lon="3.75142">
        <ele>108.248</ele>
        <time>2021-01-28T11:43:17Z</time>
      </trkpt>
      <trkpt lat="43.61723" lon="3.75137">
        <ele>107.798</ele>
        <time>2021-01-28T11:43:22Z</time>
      </trkpt>
      <trkpt lat="43.61732" lon="3.75129">
        <ele>107.517</ele>
        <time>2021-01-28T11:43:27Z</time>
      </trkpt>
      <trkpt lat="43.61761" lon="3.75091">
        <ele>109.416</ele>
        <time>2021-01-28T11:43:42Z</time>
      </trkpt>
      <trkpt lat="43.61784" lon="3.75075">
        <ele>108.435</ele>
        <time>2021-01-28T11:43:52Z</time>
      </trkpt>
      <trkpt lat="43.61795" lon="3.75061">
        <ele>108.43</ele>
        <time>2021-01-28T11:43:57Z</time>
      </trkpt>
      <trkpt lat="43.61802" lon="3.75042">
        <ele>109.179</ele>
        <time>2021-01-28T11:44:02Z</time>
      </trkpt>
      <trkpt lat="43.61807" lon="3.75021">
        <ele>109.988</ele>
        <time>2021-01-28T11:44:07Z</time>
      </trkpt>
      <trkpt lat="43.61803" lon="3.74981">
        <ele>110.344</ele>
        <time>2021-01-28T11:44:17Z</time>
      </trkpt>
      <trkpt lat="43.61799" lon="3.74966">
        <ele>109.965</ele>
        <time>2021-01-28T11:44:22Z</time>
      </trkpt>
      <trkpt lat="43.61781" lon="3.74936">
        <ele>110.476</ele>
        <time>2021-01-28T11:44:32Z</time>
      </trkpt>
      <trkpt lat="43.61773" lon="3.74927">
        <ele>111.143</ele>
        <time>2021-01-28T11:44:37Z</time>
      </trkpt>
      <trkpt lat="43.61759" lon="3.74903">
        <ele>110.787</ele>
        <time>2021-01-28T11:44:48Z</time>
      </trkpt>
      <trkpt lat="43.61741" lon="3.74889">
        <ele>110.437</ele>
        <time>2021-01-28T11:44:58Z</time>
      </trkpt>
      <trkpt lat="43.61712" lon="3.74842">
        <ele>110.944</ele>
        <time>2021-01-28T11:45:13Z</time>
      </trkpt>
      <trkpt lat="43.61705" lon="3.74825">
        <ele>109.534</ele>
        <time>2021-01-28T11:45:18Z</time>
      </trkpt>
      <trkpt lat="43.61692" lon="3.74754">
        <ele>110.141</ele>
        <time>2021-01-28T11:45:38Z</time>
      </trkpt>
      <trkpt lat="43.61672" lon="3.74711">
        <ele>110.903</ele>
        <time>2021-01-28T11:45:53Z</time>
      </trkpt>
      <trkpt lat="43.61666" lon="3.74693">
        <ele>110.439</ele>
        <time>2021-01-28T11:45:58Z</time>
      </trkpt>
      <trkpt lat="43.61612" lon="3.74622">
        <ele>114.544</ele>
        <time>2021-01-28T11:46:23Z</time>
      </trkpt>
      <trkpt lat="43.61605" lon="3.74605">
        <ele>115.186</ele>
        <time>2021-01-28T11:46:28Z</time>
      </trkpt>
      <trkpt lat="43.61583" lon="3.74563">
        <ele>118.01</ele>
        <time>2021-01-28T11:46:43Z</time>
      </trkpt>
      <trkpt lat="43.61575" lon="3.74538">
        <ele>117.561</ele>
        <time>2021-01-28T11:46:53Z</time>
      </trkpt>
      <trkpt lat="43.61565" lon="3.74519">
        <ele>117.734</ele>
        <time>2021-01-28T11:46:58Z</time>
      </trkpt>
      <trkpt lat="43.61574" lon="3.74518">
        <ele>115.754</ele>
        <time>2021-01-28T11:48:02Z</time>
      </trkpt>
      <trkpt lat="43.61626" lon="3.74539">
        <ele>111.505</ele>
        <time>2021-01-28T11:48:17Z</time>
      </trkpt>
      <trkpt lat="43.6166" lon="3.7456">
        <ele>111.298</ele>
        <time>2021-01-28T11:49:56Z</time>
      </trkpt>
      <trkpt lat="43.61685" lon="3.74594">
        <ele>113.38</ele>
        <time>2021-01-28T11:50:32Z</time>
      </trkpt>
      <trkpt lat="43.61703" lon="3.74605">
        <ele>114.826</ele>
        <time>2021-01-28T11:50:44Z</time>
      </trkpt>
      <trkpt lat="43.61709" lon="3.74615">
        <ele>114.306</ele>
        <time>2021-01-28T11:50:50Z</time>
      </trkpt>
      <trkpt lat="43.61745" lon="3.74642">
        <ele>115.865</ele>
        <time>2021-01-28T11:51:10Z</time>
      </trkpt>
      <trkpt lat="43.61754" lon="3.74643">
        <ele>116.844</ele>
        <time>2021-01-28T11:51:15Z</time>
      </trkpt>
      <trkpt lat="43.61774" lon="3.74635">
        <ele>118.799</ele>
        <time>2021-01-28T11:51:25Z</time>
      </trkpt>
      <trkpt lat="43.61781" lon="3.74627">
        <ele>120.554</ele>
        <time>2021-01-28T11:51:33Z</time>
      </trkpt>
      <trkpt lat="43.6179" lon="3.7463">
        <ele>120.601</ele>
        <time>2021-01-28T11:52:33Z</time>
      </trkpt>
      <trkpt lat="43.61802" lon="3.74629">
        <ele>121.161</ele>
        <time>2021-01-28T11:52:38Z</time>
      </trkpt>
      <trkpt lat="43.61816" lon="3.74621">
        <ele>122.072</ele>
        <time>2021-01-28T11:52:43Z</time>
      </trkpt>
      <trkpt lat="43.61828" lon="3.74601">
        <ele>124.101</ele>
        <time>2021-01-28T11:52:55Z</time>
      </trkpt>
      <trkpt lat="43.61834" lon="3.74561">
        <ele>128.31</ele>
        <time>2021-01-28T11:53:15Z</time>
      </trkpt>
      <trkpt lat="43.61831" lon="3.74546">
        <ele>130.293</ele>
        <time>2021-01-28T11:53:34Z</time>
      </trkpt>
      <trkpt lat="43.61833" lon="3.7453">
        <ele>131.984</ele>
        <time>2021-01-28T11:53:47Z</time>
      </trkpt>
      <trkpt lat="43.61828" lon="3.74515">
        <ele>134.095</ele>
        <time>2021-01-28T11:54:02Z</time>
      </trkpt>
      <trkpt lat="43.61829" lon="3.74502">
        <ele>135.365</ele>
        <time>2021-01-28T11:54:13Z</time>
      </trkpt>
      <trkpt lat="43.61819" lon="3.74477">
        <ele>138.708</ele>
        <time>2021-01-28T11:54:31Z</time>
      </trkpt>
      <trkpt lat="43.61818" lon="3.74463">
        <ele>140.167</ele>
        <time>2021-01-28T11:54:37Z</time>
      </trkpt>
      <trkpt lat="43.61812" lon="3.74445">
        <ele>142.42</ele>
        <time>2021-01-28T11:54:50Z</time>
      </trkpt>
      <trkpt lat="43.61797" lon="3.74422">
        <ele>145.877</ele>
        <time>2021-01-28T11:55:12Z</time>
      </trkpt>
      <trkpt lat="43.61778" lon="3.74382">
        <ele>149.898</ele>
        <time>2021-01-28T11:55:58Z</time>
      </trkpt>
      <trkpt lat="43.61775" lon="3.74368">
        <ele>150.689</ele>
        <time>2021-01-28T11:56:14Z</time>
      </trkpt>
      <trkpt lat="43.6177" lon="3.74357">
        <ele>151.207</ele>
        <time>2021-01-28T11:56:32Z</time>
      </trkpt>
      <trkpt lat="43.61767" lon="3.74327">
        <ele>152.529</ele>
        <time>2021-01-28T11:57:03Z</time>
      </trkpt>
      <trkpt lat="43.61775" lon="3.74302">
        <ele>153.494</ele>
        <time>2021-01-28T12:00:37Z</time>
      </trkpt>
      <trkpt lat="43.61782" lon="3.74293">
        <ele>153.956</ele>
        <time>2021-01-28T12:00:43Z</time>
      </trkpt>
      <trkpt lat="43.61832" lon="3.74192">
        <ele>153.472</ele>
        <time>2021-01-28T12:01:28Z</time>
      </trkpt>
      <trkpt lat="43.61839" lon="3.74172">
        <ele>153.57</ele>
        <time>2021-01-28T12:01:33Z</time>
      </trkpt>
      <trkpt lat="43.6185" lon="3.7416">
        <ele>153.905</ele>
        <time>2021-01-28T12:01:38Z</time>
      </trkpt>
      <trkpt lat="43.61863" lon="3.74153">
        <ele>153.585</ele>
        <time>2021-01-28T12:01:43Z</time>
      </trkpt>
      <trkpt lat="43.61876" lon="3.74141">
        <ele>153.447</ele>
        <time>2021-01-28T12:01:48Z</time>
      </trkpt>
      <trkpt lat="43.61878" lon="3.74126">
        <ele>153.905</ele>
        <time>2021-01-28T12:01:53Z</time>
      </trkpt>
      <trkpt lat="43.61874" lon="3.74114">
        <ele>154.402</ele>
        <time>2021-01-28T12:01:59Z</time>
      </trkpt>
      <trkpt lat="43.61872" lon="3.74101">
        <ele>154.855</ele>
        <time>2021-01-28T12:02:06Z</time>
      </trkpt>
      <trkpt lat="43.61888" lon="3.74064">
        <ele>155.991</ele>
        <time>2021-01-28T12:02:23Z</time>
      </trkpt>
      <trkpt lat="43.6189" lon="3.74051">
        <ele>156.61</ele>
        <time>2021-01-28T12:02:28Z</time>
      </trkpt>
      <trkpt lat="43.61887" lon="3.73982">
        <ele>160.248</ele>
        <time>2021-01-28T12:02:54Z</time>
      </trkpt>
      <trkpt lat="43.61883" lon="3.73956">
        <ele>161.958</ele>
        <time>2021-01-28T12:03:05Z</time>
      </trkpt>
      <trkpt lat="43.61866" lon="3.73907">
        <ele>167.036</ele>
        <time>2021-01-28T12:03:30Z</time>
      </trkpt>
      <trkpt lat="43.6186" lon="3.73867">
        <ele>169.988</ele>
        <time>2021-01-28T12:04:22Z</time>
      </trkpt>
      <trkpt lat="43.61859" lon="3.7382">
        <ele>171.699</ele>
        <time>2021-01-28T12:04:37Z</time>
      </trkpt>
      <trkpt lat="43.61852" lon="3.73775">
        <ele>172.982</ele>
        <time>2021-01-28T12:04:52Z</time>
      </trkpt>
      <trkpt lat="43.61854" lon="3.73758">
        <ele>172.797</ele>
        <time>2021-01-28T12:04:57Z</time>
      </trkpt>
      <trkpt lat="43.61849" lon="3.73694">
        <ele>173.31</ele>
        <time>2021-01-28T12:05:17Z</time>
      </trkpt>
      <trkpt lat="43.61844" lon="3.73661">
        <ele>174.132</ele>
        <time>2021-01-28T12:05:27Z</time>
      </trkpt>
      <trkpt lat="43.61827" lon="3.73581">
        <ele>177.6</ele>
        <time>2021-01-28T12:05:52Z</time>
      </trkpt>
      <trkpt lat="43.61825" lon="3.73506">
        <ele>179.67</ele>
        <time>2021-01-28T12:06:17Z</time>
      </trkpt>
      <trkpt lat="43.6183" lon="3.73469">
        <ele>178.916</ele>
        <time>2021-01-28T12:06:27Z</time>
      </trkpt>
      <trkpt lat="43.61856" lon="3.73378">
        <ele>176.007</ele>
        <time>2021-01-28T12:06:47Z</time>
      </trkpt>
      <trkpt lat="43.61834" lon="3.73368">
        <ele>175.975</ele>
        <time>2021-01-28T12:08:17Z</time>
      </trkpt>
      <trkpt lat="43.6181" lon="3.73386">
        <ele>176.261</ele>
        <time>2021-01-28T12:08:27Z</time>
      </trkpt>
      <trkpt lat="43.61777" lon="3.7343">
        <ele>173.579</ele>
        <time>2021-01-28T12:08:37Z</time>
      </trkpt>
      <trkpt lat="43.61757" lon="3.73451">
        <ele>172.02</ele>
        <time>2021-01-28T12:08:42Z</time>
      </trkpt>
      <trkpt lat="43.61694" lon="3.73534">
        <ele>165.955</ele>
        <time>2021-01-28T12:08:57Z</time>
      </trkpt>
      <trkpt lat="43.61672" lon="3.73548">
        <ele>161.818</ele>
        <time>2021-01-28T12:09:02Z</time>
      </trkpt>
      <trkpt lat="43.61621" lon="3.7357">
        <ele>155.044</ele>
        <time>2021-01-28T12:09:12Z</time>
      </trkpt>
      <trkpt lat="43.61604" lon="3.73592">
        <ele>150.924</ele>
        <time>2021-01-28T12:09:17Z</time>
      </trkpt>
      <trkpt lat="43.61596" lon="3.7361">
        <ele>146.064</ele>
        <time>2021-01-28T12:09:22Z</time>
      </trkpt>
      <trkpt lat="43.61585" lon="3.73623">
        <ele>142.056</ele>
        <time>2021-01-28T12:09:27Z</time>
      </trkpt>
      <trkpt lat="43.61572" lon="3.73625">
        <ele>138.344</ele>
        <time>2021-01-28T12:10:01Z</time>
      </trkpt>
      <trkpt lat="43.6157" lon="3.73637">
        <ele>135.883</ele>
        <time>2021-01-28T12:10:35Z</time>
      </trkpt>
      <trkpt lat="43.61562" lon="3.73653">
        <ele>132.604</ele>
        <time>2021-01-28T12:10:40Z</time>
      </trkpt>
      <trkpt lat="43.61565" lon="3.73686">
        <ele>130.009</ele>
        <time>2021-01-28T12:10:50Z</time>
      </trkpt>
      <trkpt lat="43.6156" lon="3.73704">
        <ele>128.019</ele>
        <time>2021-01-28T12:11:47Z</time>
      </trkpt>
      <trkpt lat="43.61558" lon="3.73731">
        <ele>128.726</ele>
        <time>2021-01-28T12:11:52Z</time>
      </trkpt>
      <trkpt lat="43.61534" lon="3.73816">
        <ele>123.235</ele>
        <time>2021-01-28T12:12:07Z</time>
      </trkpt>
      <trkpt lat="43.61526" lon="3.73836">
        <ele>122.024</ele>
        <time>2021-01-28T12:12:12Z</time>
      </trkpt>
      <trkpt lat="43.61515" lon="3.73836">
        <ele>121.683</ele>
        <time>2021-01-28T12:12:17Z</time>
      </trkpt>
      <trkpt lat="43.61485" lon="3.73808">
        <ele>121.973</ele>
        <time>2021-01-28T12:13:43Z</time>
      </trkpt>
      <trkpt lat="43.61479" lon="3.73799">
        <ele>122.705</ele>
        <time>2021-01-28T12:13:49Z</time>
      </trkpt>
      <trkpt lat="43.61471" lon="3.7376">
        <ele>124.555</ele>
        <time>2021-01-28T12:14:09Z</time>
      </trkpt>
      <trkpt lat="43.61467" lon="3.73718">
        <ele>126.597</ele>
        <time>2021-01-28T12:14:56Z</time>
      </trkpt>
      <trkpt lat="43.61461" lon="3.73691">
        <ele>128.252</ele>
        <time>2021-01-28T12:15:06Z</time>
      </trkpt>
      <trkpt lat="43.61443" lon="3.73661">
        <ele>131.951</ele>
        <time>2021-01-28T12:15:28Z</time>
      </trkpt>
      <trkpt lat="43.61401" lon="3.73681">
        <ele>137.678</ele>
        <time>2021-01-28T12:16:23Z</time>
      </trkpt>
      <trkpt lat="43.61391" lon="3.73682">
        <ele>139.063</ele>
        <time>2021-01-28T12:16:32Z</time>
      </trkpt>
      <trkpt lat="43.61365" lon="3.737">
        <ele>140.929</ele>
        <time>2021-01-28T12:16:55Z</time>
      </trkpt>
      <trkpt lat="43.6133" lon="3.73702">
        <ele>145.251</ele>
        <time>2021-01-28T12:17:22Z</time>
      </trkpt>
      <trkpt lat="43.61285" lon="3.73719">
        <ele>147.989</ele>
        <time>2021-01-28T12:18:00Z</time>
      </trkpt>
      <trkpt lat="43.61267" lon="3.73718">
        <ele>149.603</ele>
        <time>2021-01-28T12:19:42Z</time>
      </trkpt>
      <trkpt lat="43.61212" lon="3.73693">
        <ele>154.827</ele>
        <time>2021-01-28T12:20:25Z</time>
      </trkpt>
      <trkpt lat="43.61183" lon="3.73685">
        <ele>156.897</ele>
        <time>2021-01-28T12:20:45Z</time>
      </trkpt>
      <trkpt lat="43.61167" lon="3.73651">
        <ele>158.535</ele>
        <time>2021-01-28T12:22:02Z</time>
      </trkpt>
      <trkpt lat="43.61149" lon="3.73639">
        <ele>159.938</ele>
        <time>2021-01-28T12:22:13Z</time>
      </trkpt>
      <trkpt lat="43.61113" lon="3.73605">
        <ele>159.894</ele>
        <time>2021-01-28T12:22:33Z</time>
      </trkpt>
      <trkpt lat="43.61149" lon="3.73538">
        <ele>156.22</ele>
        <time>2021-01-28T12:23:26Z</time>
      </trkpt>
      <trkpt lat="43.61147" lon="3.73512">
        <ele>155.726</ele>
        <time>2021-01-28T12:23:31Z</time>
      </trkpt>
      <trkpt lat="43.61142" lon="3.73493">
        <ele>157.066</ele>
        <time>2021-01-28T12:23:36Z</time>
      </trkpt>
      <trkpt lat="43.61144" lon="3.73479">
        <ele>157.686</ele>
        <time>2021-01-28T12:23:41Z</time>
      </trkpt>
      <trkpt lat="43.61141" lon="3.73467">
        <ele>158.877</ele>
        <time>2021-01-28T12:23:47Z</time>
      </trkpt>
      <trkpt lat="43.61142" lon="3.73452">
        <ele>159.541</ele>
        <time>2021-01-28T12:23:53Z</time>
      </trkpt>
      <trkpt lat="43.6114" lon="3.73431">
        <ele>161.033</ele>
        <time>2021-01-28T12:24:23Z</time>
      </trkpt>
      <trkpt lat="43.61131" lon="3.73426">
        <ele>163.132</ele>
        <time>2021-01-28T12:24:41Z</time>
      </trkpt>
      <trkpt lat="43.61119" lon="3.73424">
        <ele>165.724</ele>
        <time>2021-01-28T12:25:02Z</time>
      </trkpt>
      <trkpt lat="43.61098" lon="3.73435">
        <ele>168.321</ele>
        <time>2021-01-28T12:25:33Z</time>
      </trkpt>
      <trkpt lat="43.61087" lon="3.73432">
        <ele>170.221</ele>
        <time>2021-01-28T12:25:48Z</time>
      </trkpt>
      <trkpt lat="43.6107" lon="3.73415">
        <ele>174.087</ele>
        <time>2021-01-28T12:26:31Z</time>
      </trkpt>
      <trkpt lat="43.61067" lon="3.73402">
        <ele>176.398</ele>
        <time>2021-01-28T12:26:45Z</time>
      </trkpt>
      <trkpt lat="43.6105" lon="3.73392">
        <ele>179.325</ele>
        <time>2021-01-28T12:27:04Z</time>
      </trkpt>
      <trkpt lat="43.61015" lon="3.73348">
        <ele>183.265</ele>
        <time>2021-01-28T12:28:28Z</time>
      </trkpt>
      <trkpt lat="43.61009" lon="3.73333">
        <ele>184.649</ele>
        <time>2021-01-28T12:28:43Z</time>
      </trkpt>
      <trkpt lat="43.61008" lon="3.73317">
        <ele>186.052</ele>
        <time>2021-01-28T12:28:56Z</time>
      </trkpt>
      <trkpt lat="43.60995" lon="3.73319">
        <ele>184.558</ele>
        <time>2021-01-28T12:31:51Z</time>
      </trkpt>
      <trkpt lat="43.60983" lon="3.73333">
        <ele>181.173</ele>
        <time>2021-01-28T12:31:56Z</time>
      </trkpt>
      <trkpt lat="43.60971" lon="3.73336">
        <ele>178.818</ele>
        <time>2021-01-28T12:32:01Z</time>
      </trkpt>
      <trkpt lat="43.60961" lon="3.73344">
        <ele>176.399</ele>
        <time>2021-01-28T12:32:06Z</time>
      </trkpt>
      <trkpt lat="43.60949" lon="3.73346">
        <ele>172.8</ele>
        <time>2021-01-28T12:32:11Z</time>
      </trkpt>
      <trkpt lat="43.60936" lon="3.73344">
        <ele>168.752</ele>
        <time>2021-01-28T12:32:16Z</time>
      </trkpt>
      <trkpt lat="43.60925" lon="3.73336">
        <ele>165.777</ele>
        <time>2021-01-28T12:32:21Z</time>
      </trkpt>
      <trkpt lat="43.60909" lon="3.73314">
        <ele>161.822</ele>
        <time>2021-01-28T12:32:38Z</time>
      </trkpt>
      <trkpt lat="43.60903" lon="3.73298">
        <ele>160.216</ele>
        <time>2021-01-28T12:32:43Z</time>
      </trkpt>
      <trkpt lat="43.60893" lon="3.73282">
        <ele>157.9</ele>
        <time>2021-01-28T12:32:48Z</time>
      </trkpt>
      <trkpt lat="43.60882" lon="3.73273">
        <ele>155.626</ele>
        <time>2021-01-28T12:33:56Z</time>
      </trkpt>
      <trkpt lat="43.60883" lon="3.7326">
        <ele>155.806</ele>
        <time>2021-01-28T12:34:02Z</time>
      </trkpt>
      <trkpt lat="43.60873" lon="3.73233">
        <ele>154.966</ele>
        <time>2021-01-28T12:34:14Z</time>
      </trkpt>
      <trkpt lat="43.60866" lon="3.73204">
        <ele>155.509</ele>
        <time>2021-01-28T12:34:24Z</time>
      </trkpt>
      <trkpt lat="43.60865" lon="3.73189">
        <ele>156.389</ele>
        <time>2021-01-28T12:34:29Z</time>
      </trkpt>
      <trkpt lat="43.60862" lon="3.73176">
        <ele>156.903</ele>
        <time>2021-01-28T12:34:34Z</time>
      </trkpt>
      <trkpt lat="43.60844" lon="3.73145">
        <ele>155.899</ele>
        <time>2021-01-28T12:34:44Z</time>
      </trkpt>
      <trkpt lat="43.60841" lon="3.73132">
        <ele>155.943</ele>
        <time>2021-01-28T12:34:49Z</time>
      </trkpt>
      <trkpt lat="43.60837" lon="3.73106">
        <ele>156.735</ele>
        <time>2021-01-28T12:35:02Z</time>
      </trkpt>
      <trkpt lat="43.60837" lon="3.73078">
        <ele>158.197</ele>
        <time>2021-01-28T12:35:14Z</time>
      </trkpt>
      <trkpt lat="43.60833" lon="3.73064">
        <ele>157.794</ele>
        <time>2021-01-28T12:35:20Z</time>
      </trkpt>
      <trkpt lat="43.60833" lon="3.72993">
        <ele>159.672</ele>
        <time>2021-01-28T12:35:40Z</time>
      </trkpt>
      <trkpt lat="43.60828" lon="3.72956">
        <ele>159.355</ele>
        <time>2021-01-28T12:35:50Z</time>
      </trkpt>
      <trkpt lat="43.60829" lon="3.72911">
        <ele>158.906</ele>
        <time>2021-01-28T12:36:00Z</time>
      </trkpt>
      <trkpt lat="43.60824" lon="3.72883">
        <ele>157.695</ele>
        <time>2021-01-28T12:36:12Z</time>
      </trkpt>
      <trkpt lat="43.60834" lon="3.72851">
        <ele>158.699</ele>
        <time>2021-01-28T12:36:22Z</time>
      </trkpt>
      <trkpt lat="43.60844" lon="3.72804">
        <ele>158.616</ele>
        <time>2021-01-28T12:36:37Z</time>
      </trkpt>
      <trkpt lat="43.60832" lon="3.72753">
        <ele>157.193</ele>
        <time>2021-01-28T12:36:52Z</time>
      </trkpt>
      <trkpt lat="43.60824" lon="3.72699">
        <ele>160.485</ele>
        <time>2021-01-28T12:37:07Z</time>
      </trkpt>
      <trkpt lat="43.6082" lon="3.72649">
        <ele>162.259</ele>
        <time>2021-01-28T12:37:22Z</time>
      </trkpt>
      <trkpt lat="43.60801" lon="3.72575">
        <ele>166.793</ele>
        <time>2021-01-28T12:37:47Z</time>
      </trkpt>
      <trkpt lat="43.60792" lon="3.72553">
        <ele>167.803</ele>
        <time>2021-01-28T12:37:57Z</time>
      </trkpt>
      <trkpt lat="43.60771" lon="3.72486">
        <ele>170.146</ele>
        <time>2021-01-28T12:38:23Z</time>
      </trkpt>
      <trkpt lat="43.60762" lon="3.72448">
        <ele>170.918</ele>
        <time>2021-01-28T12:38:40Z</time>
      </trkpt>
      <trkpt lat="43.60753" lon="3.72425">
        <ele>172.263</ele>
        <time>2021-01-28T12:38:52Z</time>
      </trkpt>
      <trkpt lat="43.60747" lon="3.72399">
        <ele>173.443</ele>
        <time>2021-01-28T12:39:06Z</time>
      </trkpt>
      <trkpt lat="43.60739" lon="3.72392">
        <ele>174.479</ele>
        <time>2021-01-28T12:44:26Z</time>
      </trkpt>
      <trkpt lat="43.60728" lon="3.7237">
        <ele>176.138</ele>
        <time>2021-01-28T12:44:46Z</time>
      </trkpt>
      <trkpt lat="43.60707" lon="3.72341">
        <ele>178.494</ele>
        <time>2021-01-28T12:45:28Z</time>
      </trkpt>
      <trkpt lat="43.607" lon="3.72319">
        <ele>178.997</ele>
        <time>2021-01-28T12:46:19Z</time>
      </trkpt>
      <trkpt lat="43.60694" lon="3.7231">
        <ele>178.931</ele>
        <time>2021-01-28T12:46:26Z</time>
      </trkpt>
      <trkpt lat="43.60707" lon="3.72274">
        <ele>178.985</ele>
        <time>2021-01-28T12:46:43Z</time>
      </trkpt>
      <trkpt lat="43.60714" lon="3.72263">
        <ele>179.17</ele>
        <time>2021-01-28T12:46:50Z</time>
      </trkpt>
      <trkpt lat="43.60718" lon="3.72232">
        <ele>181.243</ele>
        <time>2021-01-28T12:47:01Z</time>
      </trkpt>
      <trkpt lat="43.60718" lon="3.72207">
        <ele>182.9</ele>
        <time>2021-01-28T12:47:11Z</time>
      </trkpt>
      <trkpt lat="43.60706" lon="3.72141">
        <ele>183.467</ele>
        <time>2021-01-28T12:47:41Z</time>
      </trkpt>
      <trkpt lat="43.60711" lon="3.72115">
        <ele>186.788</ele>
        <time>2021-01-28T12:47:52Z</time>
      </trkpt>
      <trkpt lat="43.60717" lon="3.72033">
        <ele>195.307</ele>
        <time>2021-01-28T12:48:32Z</time>
      </trkpt>
      <trkpt lat="43.60709" lon="3.72022">
        <ele>195.238</ele>
        <time>2021-01-28T12:48:39Z</time>
      </trkpt>
      <trkpt lat="43.60705" lon="3.7201">
        <ele>196.038</ele>
        <time>2021-01-28T12:48:45Z</time>
      </trkpt>
      <trkpt lat="43.60698" lon="3.72001">
        <ele>196.404</ele>
        <time>2021-01-28T12:48:50Z</time>
      </trkpt>
      <trkpt lat="43.60692" lon="3.71977">
        <ele>198.957</ele>
        <time>2021-01-28T12:49:03Z</time>
      </trkpt>
      <trkpt lat="43.60684" lon="3.71969">
        <ele>199.047</ele>
        <time>2021-01-28T12:49:09Z</time>
      </trkpt>
      <trkpt lat="43.6068" lon="3.71956">
        <ele>200.368</ele>
        <time>2021-01-28T12:49:18Z</time>
      </trkpt>
      <trkpt lat="43.60677" lon="3.71931">
        <ele>202.614</ele>
        <time>2021-01-28T12:49:33Z</time>
      </trkpt>
      <trkpt lat="43.60672" lon="3.71919">
        <ele>203.227</ele>
        <time>2021-01-28T12:49:42Z</time>
      </trkpt>
      <trkpt lat="43.60668" lon="3.71893">
        <ele>205.54</ele>
        <time>2021-01-28T12:49:59Z</time>
      </trkpt>
      <trkpt lat="43.60664" lon="3.71881">
        <ele>205.795</ele>
        <time>2021-01-28T12:50:05Z</time>
      </trkpt>
      <trkpt lat="43.60662" lon="3.71845">
        <ele>204.634</ele>
        <time>2021-01-28T12:51:44Z</time>
      </trkpt>
      <trkpt lat="43.60655" lon="3.71819">
        <ele>203.314</ele>
        <time>2021-01-28T12:51:49Z</time>
      </trkpt>
      <trkpt lat="43.60639" lon="3.71781">
        <ele>199.795</ele>
        <time>2021-01-28T12:51:54Z</time>
      </trkpt>
      <trkpt lat="43.60607" lon="3.71722">
        <ele>200.036</ele>
        <time>2021-01-28T12:52:04Z</time>
      </trkpt>
      <trkpt lat="43.60614" lon="3.71699">
        <ele>197.713</ele>
        <time>2021-01-28T12:52:09Z</time>
      </trkpt>
      <trkpt lat="43.60629" lon="3.71687">
        <ele>196.347</ele>
        <time>2021-01-28T12:52:14Z</time>
      </trkpt>
      <trkpt lat="43.60666" lon="3.71676">
        <ele>191.357</ele>
        <time>2021-01-28T12:52:24Z</time>
      </trkpt>
      <trkpt lat="43.60684" lon="3.71665">
        <ele>188.393</ele>
        <time>2021-01-28T12:52:29Z</time>
      </trkpt>
      <trkpt lat="43.60705" lon="3.71636">
        <ele>185.729</ele>
        <time>2021-01-28T12:54:57Z</time>
      </trkpt>
      <trkpt lat="43.60711" lon="3.71606">
        <ele>185.655</ele>
        <time>2021-01-28T12:55:02Z</time>
      </trkpt>
      <trkpt lat="43.60715" lon="3.71575">
        <ele>185.844</ele>
        <time>2021-01-28T12:55:07Z</time>
      </trkpt>
      <trkpt lat="43.6071" lon="3.71538">
        <ele>184.719</ele>
        <time>2021-01-28T12:55:12Z</time>
      </trkpt>
      <trkpt lat="43.60696" lon="3.715">
        <ele>183.627</ele>
        <time>2021-01-28T12:55:17Z</time>
      </trkpt>
      <trkpt lat="43.60681" lon="3.71481">
        <ele>183.262</ele>
        <time>2021-01-28T12:55:22Z</time>
      </trkpt>
      <trkpt lat="43.60666" lon="3.71471">
        <ele>183.849</ele>
        <time>2021-01-28T12:55:27Z</time>
      </trkpt>
      <trkpt lat="43.60648" lon="3.7145">
        <ele>182.381</ele>
        <time>2021-01-28T12:55:32Z</time>
      </trkpt>
      <trkpt lat="43.6063" lon="3.71439">
        <ele>182.692</ele>
        <time>2021-01-28T12:55:37Z</time>
      </trkpt>
      <trkpt lat="43.60616" lon="3.71426">
        <ele>182.39</ele>
        <time>2021-01-28T12:55:42Z</time>
      </trkpt>
      <trkpt lat="43.60601" lon="3.71395">
        <ele>179.624</ele>
        <time>2021-01-28T12:55:47Z</time>
      </trkpt>
      <trkpt lat="43.60589" lon="3.71358">
        <ele>176.786</ele>
        <time>2021-01-28T12:55:52Z</time>
      </trkpt>
      <trkpt lat="43.60585" lon="3.71324">
        <ele>173.392</ele>
        <time>2021-01-28T12:55:57Z</time>
      </trkpt>
      <trkpt lat="43.60575" lon="3.71288">
        <ele>171.2</ele>
        <time>2021-01-28T12:56:02Z</time>
      </trkpt>
      <trkpt lat="43.60554" lon="3.71253">
        <ele>170.803</ele>
        <time>2021-01-28T12:56:07Z</time>
      </trkpt>
      <trkpt lat="43.60515" lon="3.71199">
        <ele>167.284</ele>
        <time>2021-01-28T12:56:17Z</time>
      </trkpt>
      <trkpt lat="43.60485" lon="3.71172">
        <ele>164.014</ele>
        <time>2021-01-28T12:56:22Z</time>
      </trkpt>
      <trkpt lat="43.60459" lon="3.71154">
        <ele>161.112</ele>
        <time>2021-01-28T12:56:27Z</time>
      </trkpt>
      <trkpt lat="43.60446" lon="3.71137">
        <ele>157.558</ele>
        <time>2021-01-28T12:56:32Z</time>
      </trkpt>
      <trkpt lat="43.60419" lon="3.71123">
        <ele>154.99</ele>
        <time>2021-01-28T12:56:37Z</time>
      </trkpt>
      <trkpt lat="43.60397" lon="3.71117">
        <ele>153.577</ele>
        <time>2021-01-28T12:56:42Z</time>
      </trkpt>
      <trkpt lat="43.60374" lon="3.711">
        <ele>149.751</ele>
        <time>2021-01-28T12:56:53Z</time>
      </trkpt>
      <trkpt lat="43.60394" lon="3.71109">
        <ele>151.855</ele>
        <time>2021-01-28T12:58:12Z</time>
      </trkpt>
      <trkpt lat="43.60426" lon="3.71108">
        <ele>152.216</ele>
        <time>2021-01-28T12:58:27Z</time>
      </trkpt>
      <trkpt lat="43.60436" lon="3.71103">
        <ele>151.311</ele>
        <time>2021-01-28T12:58:32Z</time>
      </trkpt>
      <trkpt lat="43.60465" lon="3.71053">
        <ele>146.454</ele>
        <time>2021-01-28T12:58:47Z</time>
      </trkpt>
      <trkpt lat="43.60487" lon="3.71027">
        <ele>146.193</ele>
        <time>2021-01-28T12:58:57Z</time>
      </trkpt>
      <trkpt lat="43.60491" lon="3.71015">
        <ele>145.943</ele>
        <time>2021-01-28T12:59:02Z</time>
      </trkpt>
      <trkpt lat="43.60482" lon="3.70988">
        <ele>146.775</ele>
        <time>2021-01-28T12:59:12Z</time>
      </trkpt>
      <trkpt lat="43.60481" lon="3.70973">
        <ele>147.463</ele>
        <time>2021-01-28T12:59:17Z</time>
      </trkpt>
      <trkpt lat="43.60485" lon="3.70958">
        <ele>148.087</ele>
        <time>2021-01-28T12:59:23Z</time>
      </trkpt>
      <trkpt lat="43.60482" lon="3.70946">
        <ele>149.032</ele>
        <time>2021-01-28T12:59:29Z</time>
      </trkpt>
      <trkpt lat="43.60473" lon="3.70937">
        <ele>149.785</ele>
        <time>2021-01-28T12:59:35Z</time>
      </trkpt>
      <trkpt lat="43.60455" lon="3.70928">
        <ele>150.644</ele>
        <time>2021-01-28T12:59:46Z</time>
      </trkpt>
      <trkpt lat="43.60446" lon="3.70921">
        <ele>151.385</ele>
        <time>2021-01-28T12:59:54Z</time>
      </trkpt>
      <trkpt lat="43.60438" lon="3.70896">
        <ele>153.63</ele>
        <time>2021-01-28T13:00:09Z</time>
      </trkpt>
      <trkpt lat="43.60437" lon="3.70878">
        <ele>154.776</ele>
        <time>2021-01-28T13:09:15Z</time>
      </trkpt>
      <trkpt lat="43.60432" lon="3.70868">
        <ele>155.703</ele>
        <time>2021-01-28T13:09:22Z</time>
      </trkpt>
      <trkpt lat="43.60433" lon="3.70854">
        <ele>156.424</ele>
        <time>2021-01-28T13:09:31Z</time>
      </trkpt>
      <trkpt lat="43.60423" lon="3.70816">
        <ele>159.081</ele>
        <time>2021-01-28T13:09:55Z</time>
      </trkpt>
      <trkpt lat="43.60416" lon="3.70765">
        <ele>162.569</ele>
        <time>2021-01-28T13:10:24Z</time>
      </trkpt>
      <trkpt lat="43.6042" lon="3.70726">
        <ele>164.26</ele>
        <time>2021-01-28T13:10:48Z</time>
      </trkpt>
      <trkpt lat="43.60411" lon="3.70721">
        <ele>165.092</ele>
        <time>2021-01-28T13:10:57Z</time>
      </trkpt>
      <trkpt lat="43.60401" lon="3.7072">
        <ele>166.022</ele>
        <time>2021-01-28T13:11:03Z</time>
      </trkpt>
      <trkpt lat="43.60362" lon="3.70733">
        <ele>168.769</ele>
        <time>2021-01-28T13:11:27Z</time>
      </trkpt>
      <trkpt lat="43.60355" lon="3.70726">
        <ele>170.279</ele>
        <time>2021-01-28T13:11:36Z</time>
      </trkpt>
      <trkpt lat="43.60356" lon="3.70687">
        <ele>173.169</ele>
        <time>2021-01-28T13:11:58Z</time>
      </trkpt>
      <trkpt lat="43.60361" lon="3.70661">
        <ele>174.309</ele>
        <time>2021-01-28T13:12:14Z</time>
      </trkpt>
      <trkpt lat="43.60365" lon="3.70595">
        <ele>181.133</ele>
        <time>2021-01-28T13:12:55Z</time>
      </trkpt>
      <trkpt lat="43.60373" lon="3.7057">
        <ele>181.922</ele>
        <time>2021-01-28T13:13:10Z</time>
      </trkpt>
      <trkpt lat="43.60384" lon="3.70549">
        <ele>181.091</ele>
        <time>2021-01-28T13:13:24Z</time>
      </trkpt>
      <trkpt lat="43.60392" lon="3.70524">
        <ele>181.443</ele>
        <time>2021-01-28T13:13:38Z</time>
      </trkpt>
      <trkpt lat="43.60394" lon="3.70497">
        <ele>183.14</ele>
        <time>2021-01-28T13:13:53Z</time>
      </trkpt>
      <trkpt lat="43.60399" lon="3.70487">
        <ele>183.726</ele>
        <time>2021-01-28T13:14:01Z</time>
      </trkpt>
      <trkpt lat="43.60406" lon="3.70461">
        <ele>185.78</ele>
        <time>2021-01-28T13:14:16Z</time>
      </trkpt>
      <trkpt lat="43.60405" lon="3.70448">
        <ele>187.475</ele>
        <time>2021-01-28T13:14:26Z</time>
      </trkpt>
      <trkpt lat="43.60451" lon="3.704">
        <ele>195.485</ele>
        <time>2021-01-28T13:17:12Z</time>
      </trkpt>
      <trkpt lat="43.60462" lon="3.70373">
        <ele>197.762</ele>
        <time>2021-01-28T13:17:56Z</time>
      </trkpt>
      <trkpt lat="43.60459" lon="3.70362">
        <ele>198.889</ele>
        <time>2021-01-28T13:18:04Z</time>
      </trkpt>
      <trkpt lat="43.60461" lon="3.70349">
        <ele>199.873</ele>
        <time>2021-01-28T13:18:11Z</time>
      </trkpt>
      <trkpt lat="43.60469" lon="3.70343">
        <ele>200.146</ele>
        <time>2021-01-28T13:18:19Z</time>
      </trkpt>
      <trkpt lat="43.60479" lon="3.70344">
        <ele>199.828</ele>
        <time>2021-01-28T13:18:45Z</time>
      </trkpt>
      <trkpt lat="43.60491" lon="3.70356">
        <ele>198.231</ele>
        <time>2021-01-28T13:18:50Z</time>
      </trkpt>
      <trkpt lat="43.60505" lon="3.70377">
        <ele>194.983</ele>
        <time>2021-01-28T13:19:14Z</time>
      </trkpt>
      <trkpt lat="43.60549" lon="3.70407">
        <ele>187.445</ele>
        <time>2021-01-28T13:20:00Z</time>
      </trkpt>
      <trkpt lat="43.60616" lon="3.70437">
        <ele>183.901</ele>
        <time>2021-01-28T13:20:15Z</time>
      </trkpt>
      <trkpt lat="43.60625" lon="3.70436">
        <ele>184.132</ele>
        <time>2021-01-28T13:21:32Z</time>
      </trkpt>
      <trkpt lat="43.60644" lon="3.70469">
        <ele>183.104</ele>
        <time>2021-01-28T13:21:42Z</time>
      </trkpt>
      <trkpt lat="43.60681" lon="3.70514">
        <ele>179.734</ele>
        <time>2021-01-28T13:21:52Z</time>
      </trkpt>
      <trkpt lat="43.60705" lon="3.70536">
        <ele>179.573</ele>
        <time>2021-01-28T13:21:57Z</time>
      </trkpt>
      <trkpt lat="43.60724" lon="3.70561">
        <ele>178.712</ele>
        <time>2021-01-28T13:22:02Z</time>
      </trkpt>
      <trkpt lat="43.60731" lon="3.70606">
        <ele>175.062</ele>
        <time>2021-01-28T13:22:07Z</time>
      </trkpt>
      <trkpt lat="43.60742" lon="3.70639">
        <ele>173.492</ele>
        <time>2021-01-28T13:22:12Z</time>
      </trkpt>
      <trkpt lat="43.60774" lon="3.70641">
        <ele>174.445</ele>
        <time>2021-01-28T13:22:57Z</time>
      </trkpt>
      <trkpt lat="43.60802" lon="3.70638">
        <ele>174.877</ele>
        <time>2021-01-28T13:23:02Z</time>
      </trkpt>
      <trkpt lat="43.60845" lon="3.70628">
        <ele>174.695</ele>
        <time>2021-01-28T13:23:12Z</time>
      </trkpt>
      <trkpt lat="43.60884" lon="3.70633">
        <ele>174.628</ele>
        <time>2021-01-28T13:23:27Z</time>
      </trkpt>
      <trkpt lat="43.60903" lon="3.70624">
        <ele>174.484</ele>
        <time>2021-01-28T13:23:37Z</time>
      </trkpt>
      <trkpt lat="43.60924" lon="3.7062">
        <ele>174.68</ele>
        <time>2021-01-28T13:23:47Z</time>
      </trkpt>
      <trkpt lat="43.60966" lon="3.7063">
        <ele>175.383</ele>
        <time>2021-01-28T13:24:10Z</time>
      </trkpt>
      <trkpt lat="43.60995" lon="3.70634">
        <ele>176.096</ele>
        <time>2021-01-28T13:24:27Z</time>
      </trkpt>
      <trkpt lat="43.61003" lon="3.70624">
        <ele>176.53</ele>
        <time>2021-01-28T13:24:32Z</time>
      </trkpt>
      <trkpt lat="43.61031" lon="3.70549">
        <ele>177.947</ele>
        <time>2021-01-28T13:25:04Z</time>
      </trkpt>
      <trkpt lat="43.61044" lon="3.70527">
        <ele>178.584</ele>
        <time>2021-01-28T13:25:15Z</time>
      </trkpt>
      <trkpt lat="43.61053" lon="3.70504">
        <ele>179.87</ele>
        <time>2021-01-28T13:25:31Z</time>
      </trkpt>
      <trkpt lat="43.61066" lon="3.70485">
        <ele>181.237</ele>
        <time>2021-01-28T13:25:48Z</time>
      </trkpt>
      <trkpt lat="43.61073" lon="3.70462">
        <ele>182.471</ele>
        <time>2021-01-28T13:26:02Z</time>
      </trkpt>
      <trkpt lat="43.61088" lon="3.70444">
        <ele>183.625</ele>
        <time>2021-01-28T13:26:18Z</time>
      </trkpt>
      <trkpt lat="43.61106" lon="3.70411">
        <ele>184.451</ele>
        <time>2021-01-28T13:27:16Z</time>
      </trkpt>
      <trkpt lat="43.61121" lon="3.70369">
        <ele>184.378</ele>
        <time>2021-01-28T13:27:31Z</time>
      </trkpt>
      <trkpt lat="43.61112" lon="3.70335">
        <ele>183.742</ele>
        <time>2021-01-28T13:27:41Z</time>
      </trkpt>
      <trkpt lat="43.61105" lon="3.70323">
        <ele>183.503</ele>
        <time>2021-01-28T13:27:46Z</time>
      </trkpt>
      <trkpt lat="43.61099" lon="3.70307">
        <ele>183.125</ele>
        <time>2021-01-28T13:27:51Z</time>
      </trkpt>
      <trkpt lat="43.6109" lon="3.70264">
        <ele>181.255</ele>
        <time>2021-01-28T13:28:01Z</time>
      </trkpt>
      <trkpt lat="43.61076" lon="3.70222">
        <ele>180.704</ele>
        <time>2021-01-28T13:28:11Z</time>
      </trkpt>
      <trkpt lat="43.61063" lon="3.70161">
        <ele>178.274</ele>
        <time>2021-01-28T13:28:21Z</time>
      </trkpt>
      <trkpt lat="43.61044" lon="3.70097">
        <ele>176.901</ele>
        <time>2021-01-28T13:28:31Z</time>
      </trkpt>
      <trkpt lat="43.61029" lon="3.7002">
        <ele>174.348</ele>
        <time>2021-01-28T13:28:41Z</time>
      </trkpt>
      <trkpt lat="43.60999" lon="3.69913">
        <ele>171.183</ele>
        <time>2021-01-28T13:28:56Z</time>
      </trkpt>
      <trkpt lat="43.60986" lon="3.69883">
        <ele>170.201</ele>
        <time>2021-01-28T13:29:01Z</time>
      </trkpt>
      <trkpt lat="43.60978" lon="3.6985">
        <ele>168.634</ele>
        <time>2021-01-28T13:29:06Z</time>
      </trkpt>
      <trkpt lat="43.60984" lon="3.69838">
        <ele>162.9</ele>
        <time>2021-01-28T13:29:11Z</time>
      </trkpt>
      <trkpt lat="43.60992" lon="3.69825">
        <ele>161.6</ele>
        <time>2021-01-28T13:29:16Z</time>
      </trkpt>
      <trkpt lat="43.60985" lon="3.69808">
        <ele>161.7</ele>
      </trkpt>
      <trkpt lat="43.6098" lon="3.69797">
        <ele>162.2</ele>
        <time>2021-01-28T13:31:22Z</time>
      </trkpt>
      <trkpt lat="43.60982" lon="3.69794">
        <ele>164.076</ele>
        <time>2021-01-28T13:31:27Z</time>
      </trkpt>
      <trkpt lat="43.60998" lon="3.69769">
        <ele>161.71</ele>
        <time>2021-01-28T13:31:37Z</time>
      </trkpt>
      <trkpt lat="43.61002" lon="3.69757">
        <ele>161.046</ele>
        <time>2021-01-28T13:31:42Z</time>
      </trkpt>
      <trkpt lat="43.61031" lon="3.69714">
        <ele>155.482</ele>
        <time>2021-01-28T13:32:23Z</time>
      </trkpt>
      <trkpt lat="43.61042" lon="3.69692">
        <ele>152.559</ele>
        <time>2021-01-28T13:32:33Z</time>
      </trkpt>
      <trkpt lat="43.6105" lon="3.69683">
        <ele>150.8</ele>
        <time>2021-01-28T13:32:38Z</time>
      </trkpt>
      <trkpt lat="43.61061" lon="3.6966">
        <ele>147.783</ele>
        <time>2021-01-28T13:32:49Z</time>
      </trkpt>
      <trkpt lat="43.6107" lon="3.69659">
        <ele>146.326</ele>
        <time>2021-01-28T13:32:56Z</time>
      </trkpt>
      <trkpt lat="43.61069" lon="3.69628">
        <ele>144.772</ele>
        <time>2021-01-28T13:34:04Z</time>
      </trkpt>
      <trkpt lat="43.61056" lon="3.6959">
        <ele>144.37</ele>
        <time>2021-01-28T13:34:14Z</time>
      </trkpt>
      <trkpt lat="43.61052" lon="3.6955">
        <ele>142.349</ele>
        <time>2021-01-28T13:34:24Z</time>
      </trkpt>
      <trkpt lat="43.61046" lon="3.69532">
        <ele>142.633</ele>
        <time>2021-01-28T13:34:29Z</time>
      </trkpt>
      <trkpt lat="43.61038" lon="3.69477">
        <ele>142.716</ele>
        <time>2021-01-28T13:34:44Z</time>
      </trkpt>
      <trkpt lat="43.6104" lon="3.69454">
        <ele>141.04</ele>
        <time>2021-01-28T13:34:49Z</time>
      </trkpt>
      <trkpt lat="43.61038" lon="3.6943">
        <ele>140.436</ele>
        <time>2021-01-28T13:34:54Z</time>
      </trkpt>
      <trkpt lat="43.61043" lon="3.69383">
        <ele>138.526</ele>
        <time>2021-01-28T13:35:04Z</time>
      </trkpt>
      <trkpt lat="43.61041" lon="3.69336">
        <ele>137.982</ele>
        <time>2021-01-28T13:35:14Z</time>
      </trkpt>
      <trkpt lat="43.61038" lon="3.69313">
        <ele>137.923</ele>
        <time>2021-01-28T13:35:19Z</time>
      </trkpt>
      <trkpt lat="43.61036" lon="3.69239">
        <ele>136.228</ele>
        <time>2021-01-28T13:35:34Z</time>
      </trkpt>
      <trkpt lat="43.61032" lon="3.69214">
        <ele>135.224</ele>
        <time>2021-01-28T13:35:39Z</time>
      </trkpt>
      <trkpt lat="43.61023" lon="3.69196">
        <ele>134.028</ele>
        <time>2021-01-28T13:35:44Z</time>
      </trkpt>
      <trkpt lat="43.60997" lon="3.69191">
        <ele>135.442</ele>
        <time>2021-01-28T13:36:20Z</time>
      </trkpt>
      <trkpt lat="43.60987" lon="3.69193">
        <ele>137.133</ele>
        <time>2021-01-28T13:36:25Z</time>
      </trkpt>
      <trkpt lat="43.60971" lon="3.69139">
        <ele>139.212</ele>
        <time>2021-01-28T13:37:39Z</time>
      </trkpt>
      <trkpt lat="43.60971" lon="3.69121">
        <ele>139.867</ele>
        <time>2021-01-28T13:37:57Z</time>
      </trkpt>
      <trkpt lat="43.60963" lon="3.69104">
        <ele>141.953</ele>
        <time>2021-01-28T13:38:24Z</time>
      </trkpt>
      <trkpt lat="43.60959" lon="3.6908">
        <ele>142.864</ele>
        <time>2021-01-28T13:38:39Z</time>
      </trkpt>
      <trkpt lat="43.60947" lon="3.69071">
        <ele>145.052</ele>
        <time>2021-01-28T13:38:53Z</time>
      </trkpt>
      <trkpt lat="43.60915" lon="3.6911">
        <ele>152.334</ele>
        <time>2021-01-28T13:40:15Z</time>
      </trkpt>
      <trkpt lat="43.60892" lon="3.69112">
        <ele>156.477</ele>
        <time>2021-01-28T13:42:31Z</time>
      </trkpt>
      <trkpt lat="43.60874" lon="3.69098">
        <ele>159.253</ele>
        <time>2021-01-28T13:43:11Z</time>
      </trkpt>
      <trkpt lat="43.60869" lon="3.69087">
        <ele>159.478</ele>
        <time>2021-01-28T13:43:17Z</time>
      </trkpt>
      <trkpt lat="43.60856" lon="3.69069">
        <ele>160.609</ele>
        <time>2021-01-28T13:43:30Z</time>
      </trkpt>
      <trkpt lat="43.60838" lon="3.69054">
        <ele>162.345</ele>
        <time>2021-01-28T13:43:42Z</time>
      </trkpt>
      <trkpt lat="43.60818" lon="3.69054">
        <ele>164.915</ele>
        <time>2021-01-28T13:44:06Z</time>
      </trkpt>
      <trkpt lat="43.60809" lon="3.6905">
        <ele>165.476</ele>
        <time>2021-01-28T13:45:23Z</time>
      </trkpt>
      <trkpt lat="43.60774" lon="3.69048">
        <ele>169.306</ele>
        <time>2021-01-28T13:45:39Z</time>
      </trkpt>
      <trkpt lat="43.60732" lon="3.69024">
        <ele>169.363</ele>
        <time>2021-01-28T13:46:00Z</time>
      </trkpt>
      <trkpt lat="43.60718" lon="3.69001">
        <ele>166.783</ele>
        <time>2021-01-28T13:46:11Z</time>
      </trkpt>
      <trkpt lat="43.60714" lon="3.68984">
        <ele>163.977</ele>
        <time>2021-01-28T13:46:16Z</time>
      </trkpt>
      <trkpt lat="43.6068" lon="3.68947">
        <ele>165.147</ele>
        <time>2021-01-28T13:46:37Z</time>
      </trkpt>
      <trkpt lat="43.60668" lon="3.68946">
        <ele>166.319</ele>
        <time>2021-01-28T13:46:42Z</time>
      </trkpt>
      <trkpt lat="43.60648" lon="3.68928">
        <ele>164.29</ele>
        <time>2021-01-28T13:46:52Z</time>
      </trkpt>
      <trkpt lat="43.60593" lon="3.68859">
        <ele>145.39</ele>
        <time>2021-01-28T13:47:17Z</time>
      </trkpt>
      <trkpt lat="43.60587" lon="3.6884">
        <ele>141.956</ele>
        <time>2021-01-28T13:47:22Z</time>
      </trkpt>
      <trkpt lat="43.60586" lon="3.68824">
        <ele>140.042</ele>
        <time>2021-01-28T13:47:27Z</time>
      </trkpt>
      <trkpt lat="43.60573" lon="3.68798">
        <ele>136</ele>
        <time>2021-01-28T13:47:37Z</time>
      </trkpt>
      <trkpt lat="43.60538" lon="3.68737">
        <ele>123.643</ele>
        <time>2021-01-28T13:47:57Z</time>
      </trkpt>
      <trkpt lat="43.60531" lon="3.68683">
        <ele>117.1</ele>
        <time>2021-01-28T13:48:46Z</time>
      </trkpt>
      <trkpt lat="43.60524" lon="3.68675">
        <ele>115.805</ele>
        <time>2021-01-28T13:49:10Z</time>
      </trkpt>
      <trkpt lat="43.60514" lon="3.68673">
        <ele>115.339</ele>
        <time>2021-01-28T13:49:15Z</time>
      </trkpt>
      <trkpt lat="43.60512" lon="3.6866">
        <ele>114.466</ele>
        <time>2021-01-28T13:49:56Z</time>
      </trkpt>
      <trkpt lat="43.60504" lon="3.68634">
        <ele>113.666</ele>
        <time>2021-01-28T13:50:01Z</time>
      </trkpt>
      <trkpt lat="43.60492" lon="3.68627">
        <ele>113.739</ele>
        <time>2021-01-28T13:56:29Z</time>
      </trkpt>
      <trkpt lat="43.60464" lon="3.68623">
        <ele>114.239</ele>
        <time>2021-01-28T13:56:39Z</time>
      </trkpt>
      <trkpt lat="43.60452" lon="3.68618">
        <ele>114.463</ele>
        <time>2021-01-28T13:56:44Z</time>
      </trkpt>
      <trkpt lat="43.60443" lon="3.68623">
        <ele>114.566</ele>
        <time>2021-01-28T13:56:50Z</time>
      </trkpt>
      <trkpt lat="43.60436" lon="3.68648">
        <ele>114.267</ele>
        <time>2021-01-28T13:57:01Z</time>
      </trkpt>
      <trkpt lat="43.6041" lon="3.68697">
        <ele>116.6</ele>
        <time>2021-01-28T13:57:21Z</time>
      </trkpt>
      <trkpt lat="43.60409" lon="3.68713">
        <ele>116.559</ele>
        <time>2021-01-28T13:57:26Z</time>
      </trkpt>
      <trkpt lat="43.60388" lon="3.68756">
        <ele>116.118</ele>
        <time>2021-01-28T13:57:36Z</time>
      </trkpt>
      <trkpt lat="43.60365" lon="3.6887">
        <ele>109.036</ele>
        <time>2021-01-28T13:58:01Z</time>
      </trkpt>
      <trkpt lat="43.60352" lon="3.68905">
        <ele>106.859</ele>
        <time>2021-01-28T13:58:21Z</time>
      </trkpt>
      <trkpt lat="43.6034" lon="3.68928">
        <ele>105.104</ele>
        <time>2021-01-28T13:58:31Z</time>
      </trkpt>
      <trkpt lat="43.60318" lon="3.68905">
        <ele>104.352</ele>
        <time>2021-01-28T13:59:45Z</time>
      </trkpt>
      <trkpt lat="43.60323" lon="3.68894">
        <ele>105.601</ele>
        <time>2021-01-28T13:59:58Z</time>
      </trkpt>
      <trkpt lat="43.60338" lon="3.68873">
        <ele>108.147</ele>
        <time>2021-01-28T14:00:16Z</time>
      </trkpt>
      <trkpt lat="43.60341" lon="3.68862">
        <ele>109.156</ele>
        <time>2021-01-28T14:00:21Z</time>
      </trkpt>
      <trkpt lat="43.60341" lon="3.68822">
        <ele>114.593</ele>
        <time>2021-01-28T14:00:39Z</time>
      </trkpt>
      <trkpt lat="43.6036" lon="3.68792">
        <ele>116.932</ele>
        <time>2021-01-28T14:01:01Z</time>
      </trkpt>
      <trkpt lat="43.60368" lon="3.68768">
        <ele>117.76</ele>
        <time>2021-01-28T14:01:12Z</time>
      </trkpt>
      <trkpt lat="43.60376" lon="3.68758">
        <ele>117.59</ele>
        <time>2021-01-28T14:01:17Z</time>
      </trkpt>
      <trkpt lat="43.6038" lon="3.68743">
        <ele>118.736</ele>
        <time>2021-01-28T14:01:22Z</time>
      </trkpt>
      <trkpt lat="43.6038" lon="3.68701">
        <ele>120.876</ele>
        <time>2021-01-28T14:01:39Z</time>
      </trkpt>
      <trkpt lat="43.60383" lon="3.68661">
        <ele>120.762</ele>
        <time>2021-01-28T14:01:56Z</time>
      </trkpt>
      <trkpt lat="43.6038" lon="3.68634">
        <ele>120.823</ele>
        <time>2021-01-28T14:02:08Z</time>
      </trkpt>
      <trkpt lat="43.60377" lon="3.68622">
        <ele>121.156</ele>
        <time>2021-01-28T14:02:15Z</time>
      </trkpt>
      <trkpt lat="43.60364" lon="3.686">
        <ele>122.92</ele>
        <time>2021-01-28T14:02:30Z</time>
      </trkpt>
      <trkpt lat="43.60349" lon="3.68583">
        <ele>125.317</ele>
        <time>2021-01-28T14:02:44Z</time>
      </trkpt>
      <trkpt lat="43.60324" lon="3.6851">
        <ele>131.43</ele>
        <time>2021-01-28T14:03:22Z</time>
      </trkpt>
      <trkpt lat="43.60317" lon="3.68501">
        <ele>133.122</ele>
        <time>2021-01-28T14:03:29Z</time>
      </trkpt>
      <trkpt lat="43.603" lon="3.68489">
        <ele>137.419</ele>
        <time>2021-01-28T14:03:44Z</time>
      </trkpt>
      <trkpt lat="43.60238" lon="3.68469">
        <ele>145.047</ele>
        <time>2021-01-28T14:12:46Z</time>
      </trkpt>
      <trkpt lat="43.60214" lon="3.68447">
        <ele>146.683</ele>
        <time>2021-01-28T14:13:08Z</time>
      </trkpt>
      <trkpt lat="43.60199" lon="3.68428">
        <ele>148.188</ele>
        <time>2021-01-28T14:13:21Z</time>
      </trkpt>
      <trkpt lat="43.60153" lon="3.68342">
        <ele>153.504</ele>
        <time>2021-01-28T14:14:19Z</time>
      </trkpt>
      <trkpt lat="43.6015" lon="3.68328">
        <ele>153.001</ele>
        <time>2021-01-28T14:14:27Z</time>
      </trkpt>
      <trkpt lat="43.60143" lon="3.68318">
        <ele>153.38</ele>
        <time>2021-01-28T14:14:34Z</time>
      </trkpt>
      <trkpt lat="43.60134" lon="3.68313">
        <ele>154.489</ele>
        <time>2021-01-28T14:14:41Z</time>
      </trkpt>
      <trkpt lat="43.60125" lon="3.68316">
        <ele>156.173</ele>
        <time>2021-01-28T14:14:48Z</time>
      </trkpt>
      <trkpt lat="43.60104" lon="3.68363">
        <ele>159.914</ele>
        <time>2021-01-28T14:15:21Z</time>
      </trkpt>
      <trkpt lat="43.60067" lon="3.6842">
        <ele>163.685</ele>
        <time>2021-01-28T14:17:46Z</time>
      </trkpt>
      <trkpt lat="43.60048" lon="3.68432">
        <ele>165.163</ele>
        <time>2021-01-28T14:18:00Z</time>
      </trkpt>
      <trkpt lat="43.60038" lon="3.68433">
        <ele>166.319</ele>
        <time>2021-01-28T14:18:07Z</time>
      </trkpt>
      <trkpt lat="43.60012" lon="3.68453">
        <ele>167.75</ele>
        <time>2021-01-28T14:18:29Z</time>
      </trkpt>
      <trkpt lat="43.60006" lon="3.68441">
        <ele>169.502</ele>
        <time>2021-01-28T14:18:41Z</time>
      </trkpt>
      <trkpt lat="43.60006" lon="3.68428">
        <ele>170.73</ele>
        <time>2021-01-28T14:18:50Z</time>
      </trkpt>
      <trkpt lat="43.60002" lon="3.68416">
        <ele>172.247</ele>
        <time>2021-01-28T14:18:59Z</time>
      </trkpt>
      <trkpt lat="43.59984" lon="3.68402">
        <ele>175.297</ele>
        <time>2021-01-28T14:19:24Z</time>
      </trkpt>
      <trkpt lat="43.59956" lon="3.684">
        <ele>178.069</ele>
        <time>2021-01-28T14:19:44Z</time>
      </trkpt>
      <trkpt lat="43.59946" lon="3.68396">
        <ele>179.135</ele>
        <time>2021-01-28T14:19:52Z</time>
      </trkpt>
      <trkpt lat="43.5993" lon="3.68379">
        <ele>180.557</ele>
        <time>2021-01-28T14:20:06Z</time>
      </trkpt>
      <trkpt lat="43.5991" lon="3.68379">
        <ele>180.842</ele>
        <time>2021-01-28T14:20:17Z</time>
      </trkpt>
      <trkpt lat="43.59891" lon="3.68373">
        <ele>182.505</ele>
        <time>2021-01-28T14:20:31Z</time>
      </trkpt>
      <trkpt lat="43.59866" lon="3.6835">
        <ele>187.336</ele>
        <time>2021-01-28T14:20:54Z</time>
      </trkpt>
      <trkpt lat="43.59865" lon="3.68337">
        <ele>187.718</ele>
        <time>2021-01-28T14:21:05Z</time>
      </trkpt>
      <trkpt lat="43.59831" lon="3.68303">
        <ele>190.813</ele>
        <time>2021-01-28T14:21:29Z</time>
      </trkpt>
      <trkpt lat="43.59826" lon="3.68291">
        <ele>191.018</ele>
        <time>2021-01-28T14:21:34Z</time>
      </trkpt>
      <trkpt lat="43.59825" lon="3.68276">
        <ele>190.349</ele>
        <time>2021-01-28T14:21:40Z</time>
      </trkpt>
      <trkpt lat="43.59816" lon="3.6825">
        <ele>190.416</ele>
        <time>2021-01-28T14:21:51Z</time>
      </trkpt>
      <trkpt lat="43.59807" lon="3.6824">
        <ele>191.658</ele>
        <time>2021-01-28T14:21:56Z</time>
      </trkpt>
      <trkpt lat="43.59797" lon="3.68213">
        <ele>192.75</ele>
        <time>2021-01-28T14:22:07Z</time>
      </trkpt>
      <trkpt lat="43.59787" lon="3.68173">
        <ele>192.797</ele>
        <time>2021-01-28T14:22:26Z</time>
      </trkpt>
      <trkpt lat="43.59777" lon="3.68149">
        <ele>193.578</ele>
        <time>2021-01-28T14:22:37Z</time>
      </trkpt>
      <trkpt lat="43.59769" lon="3.68138">
        <ele>194.348</ele>
        <time>2021-01-28T14:22:42Z</time>
      </trkpt>
      <trkpt lat="43.59765" lon="3.68126">
        <ele>194.008</ele>
        <time>2021-01-28T14:22:47Z</time>
      </trkpt>
      <trkpt lat="43.59755" lon="3.68118">
        <ele>195.382</ele>
        <time>2021-01-28T14:22:52Z</time>
      </trkpt>
      <trkpt lat="43.59754" lon="3.6809">
        <ele>193.355</ele>
        <time>2021-01-28T14:23:05Z</time>
      </trkpt>
      <trkpt lat="43.59748" lon="3.68065">
        <ele>194.065</ele>
        <time>2021-01-28T14:23:18Z</time>
      </trkpt>
      <trkpt lat="43.5974" lon="3.68055">
        <ele>195.438</ele>
        <time>2021-01-28T14:23:25Z</time>
      </trkpt>
      <trkpt lat="43.59731" lon="3.68051">
        <ele>197.355</ele>
        <time>2021-01-28T14:23:30Z</time>
      </trkpt>
      <trkpt lat="43.59718" lon="3.68019">
        <ele>198.136</ele>
        <time>2021-01-28T14:23:53Z</time>
      </trkpt>
      <trkpt lat="43.5971" lon="3.68012">
        <ele>198.862</ele>
        <time>2021-01-28T14:24:02Z</time>
      </trkpt>
      <trkpt lat="43.59683" lon="3.68005">
        <ele>201.991</ele>
        <time>2021-01-28T14:24:18Z</time>
      </trkpt>
      <trkpt lat="43.59672" lon="3.68006">
        <ele>202.698</ele>
        <time>2021-01-28T14:24:23Z</time>
      </trkpt>
      <trkpt lat="43.59638" lon="3.68023">
        <ele>202.345</ele>
        <time>2021-01-28T14:26:47Z</time>
      </trkpt>
      <trkpt lat="43.59624" lon="3.68022">
        <ele>201.442</ele>
        <time>2021-01-28T14:26:52Z</time>
      </trkpt>
      <trkpt lat="43.59605" lon="3.68015">
        <ele>200.034</ele>
        <time>2021-01-28T14:26:57Z</time>
      </trkpt>
      <trkpt lat="43.59579" lon="3.68012">
        <ele>197.59</ele>
        <time>2021-01-28T14:27:07Z</time>
      </trkpt>
      <trkpt lat="43.59556" lon="3.68014">
        <ele>194.435</ele>
        <time>2021-01-28T14:27:12Z</time>
      </trkpt>
      <trkpt lat="43.59532" lon="3.68021">
        <ele>190.256</ele>
        <time>2021-01-28T14:27:34Z</time>
      </trkpt>
      <trkpt lat="43.5953" lon="3.68006">
        <ele>192.235</ele>
        <time>2021-01-28T14:28:13Z</time>
      </trkpt>
      <trkpt lat="43.59539" lon="3.68009">
        <ele>192.971</ele>
        <time>2021-01-28T14:28:28Z</time>
      </trkpt>
      <trkpt lat="43.59525" lon="3.68029">
        <ele>188.525</ele>
        <time>2021-01-28T14:31:16Z</time>
      </trkpt>
      <trkpt lat="43.59465" lon="3.68033">
        <ele>181</ele>
        <time>2021-01-28T14:31:31Z</time>
      </trkpt>
      <trkpt lat="43.5945" lon="3.68025">
        <ele>179.617</ele>
        <time>2021-01-28T14:31:36Z</time>
      </trkpt>
      <trkpt lat="43.59434" lon="3.6802">
        <ele>177.923</ele>
        <time>2021-01-28T14:31:41Z</time>
      </trkpt>
      <trkpt lat="43.59422" lon="3.68012">
        <ele>177.454</ele>
        <time>2021-01-28T14:31:46Z</time>
      </trkpt>
      <trkpt lat="43.5941" lon="3.68013">
        <ele>175.593</ele>
        <time>2021-01-28T14:31:51Z</time>
      </trkpt>
      <trkpt lat="43.59354" lon="3.68096">
        <ele>166.093</ele>
        <time>2021-01-28T14:32:16Z</time>
      </trkpt>
      <trkpt lat="43.5934" lon="3.68111">
        <ele>165.451</ele>
        <time>2021-01-28T14:32:21Z</time>
      </trkpt>
      <trkpt lat="43.59315" lon="3.68121">
        <ele>162.833</ele>
        <time>2021-01-28T14:32:31Z</time>
      </trkpt>
      <trkpt lat="43.59303" lon="3.6813">
        <ele>161.673</ele>
        <time>2021-01-28T14:32:36Z</time>
      </trkpt>
      <trkpt lat="43.59273" lon="3.68147">
        <ele>157.755</ele>
        <time>2021-01-28T14:32:46Z</time>
      </trkpt>
      <trkpt lat="43.59264" lon="3.68158">
        <ele>158.441</ele>
        <time>2021-01-28T14:32:52Z</time>
      </trkpt>
      <trkpt lat="43.59229" lon="3.68177">
        <ele>154.518</ele>
        <time>2021-01-28T14:33:02Z</time>
      </trkpt>
      <trkpt lat="43.59202" lon="3.682">
        <ele>150.073</ele>
        <time>2021-01-28T14:33:12Z</time>
      </trkpt>
      <trkpt lat="43.59144" lon="3.68278">
        <ele>143.645</ele>
        <time>2021-01-28T14:33:37Z</time>
      </trkpt>
      <trkpt lat="43.59086" lon="3.68314">
        <ele>137.251</ele>
        <time>2021-01-28T14:34:13Z</time>
      </trkpt>
      <trkpt lat="43.59072" lon="3.68315">
        <ele>135.953</ele>
        <time>2021-01-28T14:34:18Z</time>
      </trkpt>
      <trkpt lat="43.59038" lon="3.68336">
        <ele>132.84</ele>
        <time>2021-01-28T14:34:48Z</time>
      </trkpt>
      <trkpt lat="43.58994" lon="3.68424">
        <ele>133.778</ele>
        <time>2021-01-28T14:39:35Z</time>
      </trkpt>
      <trkpt lat="43.58987" lon="3.68447">
        <ele>134.955</ele>
        <time>2021-01-28T14:39:48Z</time>
      </trkpt>
      <trkpt lat="43.58988" lon="3.68473">
        <ele>134.194</ele>
        <time>2021-01-28T14:40:02Z</time>
      </trkpt>
      <trkpt lat="43.58999" lon="3.6851">
        <ele>132.907</ele>
        <time>2021-01-28T14:40:12Z</time>
      </trkpt>
      <trkpt lat="43.59031" lon="3.68536">
        <ele>133.006</ele>
        <time>2021-01-28T14:40:22Z</time>
      </trkpt>
      <trkpt lat="43.59025" lon="3.68546">
        <ele>131.516</ele>
        <time>2021-01-28T14:40:29Z</time>
      </trkpt>
      <trkpt lat="43.58998" lon="3.68539">
        <ele>130.024</ele>
        <time>2021-01-28T14:40:39Z</time>
      </trkpt>
      <trkpt lat="43.58975" lon="3.68546">
        <ele>128.652</ele>
        <time>2021-01-28T14:40:44Z</time>
      </trkpt>
      <trkpt lat="43.58915" lon="3.68583">
        <ele>124.3</ele>
        <time>2021-01-28T14:40:54Z</time>
      </trkpt>
      <trkpt lat="43.5888" lon="3.68598">
        <ele>122.115</ele>
        <time>2021-01-28T14:40:59Z</time>
      </trkpt>
      <trkpt lat="43.58819" lon="3.68609">
        <ele>118.3</ele>
        <time>2021-01-28T14:41:09Z</time>
      </trkpt>
      <trkpt lat="43.58805" lon="3.68583">
        <ele>118.807</ele>
        <time>2021-01-28T14:41:14Z</time>
      </trkpt>
      <trkpt lat="43.58803" lon="3.685">
        <ele>115.848</ele>
        <time>2021-01-28T14:41:24Z</time>
      </trkpt>
      <trkpt lat="43.58799" lon="3.68455">
        <ele>116.991</ele>
        <time>2021-01-28T14:41:29Z</time>
      </trkpt>
      <trkpt lat="43.58801" lon="3.68419">
        <ele>117.863</ele>
        <time>2021-01-28T14:41:34Z</time>
      </trkpt>
      <trkpt lat="43.58792" lon="3.68414">
        <ele>117.062</ele>
        <time>2021-01-28T14:41:42Z</time>
      </trkpt>
      <trkpt lat="43.58764" lon="3.68457">
        <ele>114.86</ele>
        <time>2021-01-28T14:42:07Z</time>
      </trkpt>
      <trkpt lat="43.58748" lon="3.68474">
        <ele>116.465</ele>
        <time>2021-01-28T14:42:18Z</time>
      </trkpt>
      <trkpt lat="43.58737" lon="3.68475">
        <ele>117.769</ele>
        <time>2021-01-28T14:42:23Z</time>
      </trkpt>
      <trkpt lat="43.58699" lon="3.68462">
        <ele>120.642</ele>
        <time>2021-01-28T14:42:43Z</time>
      </trkpt>
      <trkpt lat="43.58689" lon="3.68461">
        <ele>121.093</ele>
        <time>2021-01-28T14:42:48Z</time>
      </trkpt>
      <trkpt lat="43.58681" lon="3.6847">
        <ele>121.848</ele>
        <time>2021-01-28T14:42:54Z</time>
      </trkpt>
      <trkpt lat="43.58676" lon="3.68481">
        <ele>122.868</ele>
        <time>2021-01-28T14:42:59Z</time>
      </trkpt>
      <trkpt lat="43.58687" lon="3.68503">
        <ele>121.705</ele>
        <time>2021-01-28T14:43:15Z</time>
      </trkpt>
      <trkpt lat="43.58694" lon="3.68541">
        <ele>122.345</ele>
        <time>2021-01-28T14:43:31Z</time>
      </trkpt>
      <trkpt lat="43.58691" lon="3.68566">
        <ele>123.383</ele>
        <time>2021-01-28T14:43:43Z</time>
      </trkpt>
      <trkpt lat="43.58671" lon="3.68611">
        <ele>124.05</ele>
        <time>2021-01-28T14:44:11Z</time>
      </trkpt>
      <trkpt lat="43.58669" lon="3.68629">
        <ele>124.113</ele>
        <time>2021-01-28T14:44:16Z</time>
      </trkpt>
      <trkpt lat="43.58673" lon="3.68654">
        <ele>126.32</ele>
        <time>2021-01-28T14:44:26Z</time>
      </trkpt>
      <trkpt lat="43.58681" lon="3.6868">
        <ele>127.24</ele>
        <time>2021-01-28T14:44:38Z</time>
      </trkpt>
      <trkpt lat="43.58681" lon="3.68721">
        <ele>128.787</ele>
        <time>2021-01-28T14:44:57Z</time>
      </trkpt>
      <trkpt lat="43.58676" lon="3.68745">
        <ele>131.142</ele>
        <time>2021-01-28T14:45:10Z</time>
      </trkpt>
      <trkpt lat="43.58665" lon="3.6877">
        <ele>133.152</ele>
        <time>2021-01-28T14:45:22Z</time>
      </trkpt>
      <trkpt lat="43.58663" lon="3.68783">
        <ele>133.171</ele>
        <time>2021-01-28T14:45:28Z</time>
      </trkpt>
      <trkpt lat="43.58647" lon="3.688">
        <ele>135.388</ele>
        <time>2021-01-28T14:45:41Z</time>
      </trkpt>
      <trkpt lat="43.58638" lon="3.68805">
        <ele>136.565</ele>
        <time>2021-01-28T14:45:52Z</time>
      </trkpt>
      <trkpt lat="43.58631" lon="3.68815">
        <ele>138.246</ele>
        <time>2021-01-28T14:45:59Z</time>
      </trkpt>
      <trkpt lat="43.58628" lon="3.68828">
        <ele>139.713</ele>
        <time>2021-01-28T14:46:07Z</time>
      </trkpt>
      <trkpt lat="43.58629" lon="3.68857">
        <ele>141.026</ele>
        <time>2021-01-28T14:46:20Z</time>
      </trkpt>
      <trkpt lat="43.58642" lon="3.68876">
        <ele>140.886</ele>
        <time>2021-01-28T14:46:36Z</time>
      </trkpt>
      <trkpt lat="43.58652" lon="3.68881">
        <ele>140.467</ele>
        <time>2021-01-28T14:46:41Z</time>
      </trkpt>
      <trkpt lat="43.5866" lon="3.68889">
        <ele>140.253</ele>
        <time>2021-01-28T14:46:47Z</time>
      </trkpt>
      <trkpt lat="43.58664" lon="3.68901">
        <ele>140.501</ele>
        <time>2021-01-28T14:46:55Z</time>
      </trkpt>
      <trkpt lat="43.5866" lon="3.68927">
        <ele>142.416</ele>
        <time>2021-01-28T14:47:08Z</time>
      </trkpt>
      <trkpt lat="43.58647" lon="3.68947">
        <ele>144.593</ele>
        <time>2021-01-28T14:47:22Z</time>
      </trkpt>
      <trkpt lat="43.58625" lon="3.68973">
        <ele>147.055</ele>
        <time>2021-01-28T14:47:42Z</time>
      </trkpt>
      <trkpt lat="43.58615" lon="3.68977">
        <ele>147.996</ele>
        <time>2021-01-28T14:47:49Z</time>
      </trkpt>
      <trkpt lat="43.5861" lon="3.68989">
        <ele>148.464</ele>
        <time>2021-01-28T14:47:56Z</time>
      </trkpt>
      <trkpt lat="43.58602" lon="3.68997">
        <ele>149.117</ele>
        <time>2021-01-28T14:48:03Z</time>
      </trkpt>
      <trkpt lat="43.58563" lon="3.69022">
        <ele>149.549</ele>
        <time>2021-01-28T14:48:24Z</time>
      </trkpt>
      <trkpt lat="43.58544" lon="3.6903">
        <ele>149.148</ele>
        <time>2021-01-28T14:48:52Z</time>
      </trkpt>
      <trkpt lat="43.58522" lon="3.69046">
        <ele>148.319</ele>
        <time>2021-01-28T14:49:02Z</time>
      </trkpt>
      <trkpt lat="43.58507" lon="3.69063">
        <ele>147.554</ele>
        <time>2021-01-28T14:49:07Z</time>
      </trkpt>
      <trkpt lat="43.58487" lon="3.691">
        <ele>145.86</ele>
        <time>2021-01-28T14:49:12Z</time>
      </trkpt>
      <trkpt lat="43.58459" lon="3.69213">
        <ele>140.139</ele>
        <time>2021-01-28T14:49:22Z</time>
      </trkpt>
      <trkpt lat="43.58439" lon="3.69267">
        <ele>137.629</ele>
        <time>2021-01-28T14:49:27Z</time>
      </trkpt>
      <trkpt lat="43.58404" lon="3.6931">
        <ele>136</ele>
        <time>2021-01-28T14:49:32Z</time>
      </trkpt>
      <trkpt lat="43.58337" lon="3.69376">
        <ele>133.487</ele>
        <time>2021-01-28T14:49:42Z</time>
      </trkpt>
      <trkpt lat="43.58304" lon="3.69424">
        <ele>130.512</ele>
        <time>2021-01-28T14:49:47Z</time>
      </trkpt>
      <trkpt lat="43.58286" lon="3.69491">
        <ele>128.121</ele>
        <time>2021-01-28T14:49:52Z</time>
      </trkpt>
      <trkpt lat="43.58219" lon="3.69607">
        <ele>117.767</ele>
        <time>2021-01-28T14:50:02Z</time>
      </trkpt>
      <trkpt lat="43.58184" lon="3.69651">
        <ele>117.15</ele>
        <time>2021-01-28T14:50:07Z</time>
      </trkpt>
      <trkpt lat="43.58155" lon="3.69672">
        <ele>117.551</ele>
        <time>2021-01-28T14:50:12Z</time>
      </trkpt>
      <trkpt lat="43.58132" lon="3.69679">
        <ele>119.874</ele>
        <time>2021-01-28T14:50:17Z</time>
      </trkpt>
      <trkpt lat="43.58062" lon="3.69723">
        <ele>121.793</ele>
        <time>2021-01-28T14:50:47Z</time>
      </trkpt>
      <trkpt lat="43.58048" lon="3.69735">
        <ele>121.882</ele>
        <time>2021-01-28T14:50:52Z</time>
      </trkpt>
      <trkpt lat="43.58022" lon="3.69765">
        <ele>122.26</ele>
        <time>2021-01-28T14:51:02Z</time>
      </trkpt>
      <trkpt lat="43.58014" lon="3.69779">
        <ele>122.387</ele>
        <time>2021-01-28T14:51:07Z</time>
      </trkpt>
      <trkpt lat="43.57979" lon="3.69812">
        <ele>124.816</ele>
        <time>2021-01-28T14:51:28Z</time>
      </trkpt>
      <trkpt lat="43.57972" lon="3.69823">
        <ele>125.043</ele>
        <time>2021-01-28T14:51:33Z</time>
      </trkpt>
      <trkpt lat="43.57967" lon="3.69838">
        <ele>124.94</ele>
        <time>2021-01-28T14:51:38Z</time>
      </trkpt>
      <trkpt lat="43.57954" lon="3.69861">
        <ele>125.994</ele>
        <time>2021-01-28T14:51:48Z</time>
      </trkpt>
      <trkpt lat="43.57877" lon="3.69928">
        <ele>125.955</ele>
        <time>2021-01-28T14:52:18Z</time>
      </trkpt>
      <trkpt lat="43.57849" lon="3.69942">
        <ele>124.327</ele>
        <time>2021-01-28T14:52:23Z</time>
      </trkpt>
      <trkpt lat="43.57813" lon="3.69943">
        <ele>120.897</ele>
        <time>2021-01-28T14:52:28Z</time>
      </trkpt>
      <trkpt lat="43.57775" lon="3.69951">
        <ele>118.005</ele>
        <time>2021-01-28T14:52:33Z</time>
      </trkpt>
      <trkpt lat="43.57688" lon="3.69959">
        <ele>110.167</ele>
        <time>2021-01-28T14:52:43Z</time>
      </trkpt>
      <trkpt lat="43.57639" lon="3.69968">
        <ele>107.762</ele>
        <time>2021-01-28T14:52:48Z</time>
      </trkpt>
      <trkpt lat="43.57596" lon="3.69981">
        <ele>107.008</ele>
        <time>2021-01-28T14:52:53Z</time>
      </trkpt>
      <trkpt lat="43.57541" lon="3.70012">
        <ele>105.796</ele>
        <time>2021-01-28T14:53:03Z</time>
      </trkpt>
      <trkpt lat="43.57511" lon="3.70033">
        <ele>106.5</ele>
        <time>2021-01-28T14:53:13Z</time>
      </trkpt>
      <trkpt lat="43.57496" lon="3.70036">
        <ele>107.442</ele>
        <time>2021-01-28T14:53:18Z</time>
      </trkpt>
      <trkpt lat="43.57456" lon="3.70035">
        <ele>109.269</ele>
        <time>2021-01-28T14:53:33Z</time>
      </trkpt>
      <trkpt lat="43.57395" lon="3.70057">
        <ele>111.537</ele>
        <time>2021-01-28T14:53:53Z</time>
      </trkpt>
      <trkpt lat="43.57353" lon="3.70078">
        <ele>114.026</ele>
        <time>2021-01-28T14:54:08Z</time>
      </trkpt>
      <trkpt lat="43.57343" lon="3.70087">
        <ele>113.749</ele>
        <time>2021-01-28T14:54:13Z</time>
      </trkpt>
      <trkpt lat="43.5731" lon="3.701">
        <ele>114.609</ele>
        <time>2021-01-28T14:54:28Z</time>
      </trkpt>
      <trkpt lat="43.57289" lon="3.70114">
        <ele>114.375</ele>
        <time>2021-01-28T14:54:38Z</time>
      </trkpt>
      <trkpt lat="43.5726" lon="3.70164">
        <ele>113.26</ele>
        <time>2021-01-28T14:54:53Z</time>
      </trkpt>
      <trkpt lat="43.57242" lon="3.70183">
        <ele>112.518</ele>
        <time>2021-01-28T14:54:58Z</time>
      </trkpt>
      <trkpt lat="43.57215" lon="3.70201">
        <ele>111.385</ele>
        <time>2021-01-28T14:55:03Z</time>
      </trkpt>
      <trkpt lat="43.57169" lon="3.70295">
        <ele>105.33</ele>
        <time>2021-01-28T14:55:13Z</time>
      </trkpt>
      <trkpt lat="43.57121" lon="3.70414">
        <ele>103.229</ele>
        <time>2021-01-28T14:55:23Z</time>
      </trkpt>
      <trkpt lat="43.57092" lon="3.70443">
        <ele>104.552</ele>
        <time>2021-01-28T14:55:28Z</time>
      </trkpt>
      <trkpt lat="43.57067" lon="3.70456">
        <ele>103.229</ele>
        <time>2021-01-28T14:55:33Z</time>
      </trkpt>
      <trkpt lat="43.57004" lon="3.70514">
        <ele>102.192</ele>
        <time>2021-01-28T14:55:48Z</time>
      </trkpt>
      <trkpt lat="43.56977" lon="3.70529">
        <ele>100.529</ele>
        <time>2021-01-28T14:55:53Z</time>
      </trkpt>
      <trkpt lat="43.56897" lon="3.7054">
        <ele>94.099</ele>
        <time>2021-01-28T14:56:03Z</time>
      </trkpt>
      <trkpt lat="43.56846" lon="3.7054">
        <ele>89.671</ele>
        <time>2021-01-28T14:56:08Z</time>
      </trkpt>
      <trkpt lat="43.56794" lon="3.70536">
        <ele>84.686</ele>
        <time>2021-01-28T14:56:13Z</time>
      </trkpt>
      <trkpt lat="43.5675" lon="3.70547">
        <ele>80.91</ele>
        <time>2021-01-28T14:56:18Z</time>
      </trkpt>
      <trkpt lat="43.56712" lon="3.70579">
        <ele>79.426</ele>
        <time>2021-01-28T14:56:23Z</time>
      </trkpt>
      <trkpt lat="43.56644" lon="3.70622">
        <ele>75.065</ele>
        <time>2021-01-28T14:56:33Z</time>
      </trkpt>
      <trkpt lat="43.56568" lon="3.70654">
        <ele>78.814</ele>
        <time>2021-01-28T14:56:48Z</time>
      </trkpt>
      <trkpt lat="43.56559" lon="3.70661">
        <ele>79.609</ele>
        <time>2021-01-28T14:56:53Z</time>
      </trkpt>
      <trkpt lat="43.56537" lon="3.70692">
        <ele>80.63</ele>
        <time>2021-01-28T14:57:08Z</time>
      </trkpt>
      <trkpt lat="43.5652" lon="3.70724">
        <ele>80.315</ele>
        <time>2021-01-28T14:57:24Z</time>
      </trkpt>
      <trkpt lat="43.56493" lon="3.70736">
        <ele>81.992</ele>
        <time>2021-01-28T14:58:02Z</time>
      </trkpt>
      <trkpt lat="43.56474" lon="3.70732">
        <ele>82.237</ele>
        <time>2021-01-28T14:58:12Z</time>
      </trkpt>
      <trkpt lat="43.56441" lon="3.70742">
        <ele>80.949</ele>
        <time>2021-01-28T14:58:27Z</time>
      </trkpt>
      <trkpt lat="43.56425" lon="3.70742">
        <ele>80.646</ele>
        <time>2021-01-28T14:58:32Z</time>
      </trkpt>
      <trkpt lat="43.56367" lon="3.70771">
        <ele>78.443</ele>
        <time>2021-01-28T14:58:52Z</time>
      </trkpt>
      <trkpt lat="43.56322" lon="3.70779">
        <ele>78.611</ele>
        <time>2021-01-28T14:59:07Z</time>
      </trkpt>
      <trkpt lat="43.56284" lon="3.70811">
        <ele>77.004</ele>
        <time>2021-01-28T14:59:17Z</time>
      </trkpt>
      <trkpt lat="43.56258" lon="3.70815">
        <ele>76.651</ele>
        <time>2021-01-28T14:59:22Z</time>
      </trkpt>
      <trkpt lat="43.56229" lon="3.70807">
        <ele>76.518</ele>
        <time>2021-01-28T14:59:32Z</time>
      </trkpt>
      <trkpt lat="43.5618" lon="3.7085">
        <ele>74.901</ele>
        <time>2021-01-28T14:59:47Z</time>
      </trkpt>
      <trkpt lat="43.56138" lon="3.70898">
        <ele>72.763</ele>
        <time>2021-01-28T14:59:57Z</time>
      </trkpt>
      <trkpt lat="43.56107" lon="3.70907">
        <ele>71.586</ele>
        <time>2021-01-28T15:00:02Z</time>
      </trkpt>
      <trkpt lat="43.56074" lon="3.70926">
        <ele>70.174</ele>
        <time>2021-01-28T15:00:07Z</time>
      </trkpt>
      <trkpt lat="43.56042" lon="3.70954">
        <ele>68.497</ele>
        <time>2021-01-28T15:00:12Z</time>
      </trkpt>
      <trkpt lat="43.56009" lon="3.70989">
        <ele>65.867</ele>
        <time>2021-01-28T15:00:17Z</time>
      </trkpt>
      <trkpt lat="43.55977" lon="3.71027">
        <ele>65.086</ele>
        <time>2021-01-28T15:00:22Z</time>
      </trkpt>
      <trkpt lat="43.55914" lon="3.71096">
        <ele>63.02</ele>
        <time>2021-01-28T15:00:32Z</time>
      </trkpt>
      <trkpt lat="43.5587" lon="3.71164">
        <ele>59.121</ele>
        <time>2021-01-28T15:00:42Z</time>
      </trkpt>
      <trkpt lat="43.55855" lon="3.71173">
        <ele>58.678</ele>
        <time>2021-01-28T15:00:47Z</time>
      </trkpt>
      <trkpt lat="43.55841" lon="3.71189">
        <ele>58.41</ele>
        <time>2021-01-28T15:00:52Z</time>
      </trkpt>
      <trkpt lat="43.55829" lon="3.71213">
        <ele>58.018</ele>
        <time>2021-01-28T15:00:57Z</time>
      </trkpt>
      <trkpt lat="43.55802" lon="3.71243">
        <ele>57.849</ele>
        <time>2021-01-28T15:01:07Z</time>
      </trkpt>
      <trkpt lat="43.55811" lon="3.71259">
        <ele>57.913</ele>
        <time>2021-01-28T15:01:12Z</time>
      </trkpt>
      <trkpt lat="43.55854" lon="3.71298">
        <ele>58.592</ele>
        <time>2021-01-28T15:01:27Z</time>
      </trkpt>
      <trkpt lat="43.55897" lon="3.71327">
        <ele>56.858</ele>
        <time>2021-01-28T15:01:37Z</time>
      </trkpt>
      <trkpt lat="43.55932" lon="3.71357">
        <ele>55.266</ele>
        <time>2021-01-28T15:01:47Z</time>
      </trkpt>
      <trkpt lat="43.56095" lon="3.71469">
        <ele>49.717</ele>
        <time>2021-01-28T15:02:32Z</time>
      </trkpt>
      <trkpt lat="43.56107" lon="3.71473">
        <ele>49.393</ele>
        <time>2021-01-28T15:04:18Z</time>
      </trkpt>
      <trkpt lat="43.56163" lon="3.71513">
        <ele>51.62</ele>
        <time>2021-01-28T15:04:38Z</time>
      </trkpt>
      <trkpt lat="43.56204" lon="3.71551">
        <ele>56.624</ele>
        <time>2021-01-28T15:04:53Z</time>
      </trkpt>
      <trkpt lat="43.56236" lon="3.71587">
        <ele>60.154</ele>
        <time>2021-01-28T15:05:08Z</time>
      </trkpt>
      <trkpt lat="43.56251" lon="3.71618">
        <ele>61.167</ele>
        <time>2021-01-28T15:05:18Z</time>
      </trkpt>
      <trkpt lat="43.56256" lon="3.71633">
        <ele>61.22</ele>
        <time>2021-01-28T15:05:23Z</time>
      </trkpt>
      <trkpt lat="43.56264" lon="3.71646">
        <ele>61.667</ele>
        <time>2021-01-28T15:05:28Z</time>
      </trkpt>
      <trkpt lat="43.56287" lon="3.71706">
        <ele>63.167</ele>
        <time>2021-01-28T15:05:48Z</time>
      </trkpt>
      <trkpt lat="43.5629" lon="3.71722">
        <ele>63.215</ele>
        <time>2021-01-28T15:05:53Z</time>
      </trkpt>
      <trkpt lat="43.56297" lon="3.7174">
        <ele>63.574</ele>
        <time>2021-01-28T15:05:58Z</time>
      </trkpt>
      <trkpt lat="43.56315" lon="3.71818">
        <ele>62.987</ele>
        <time>2021-01-28T15:06:18Z</time>
      </trkpt>
      <trkpt lat="43.56322" lon="3.71864">
        <ele>61.804</ele>
        <time>2021-01-28T15:06:28Z</time>
      </trkpt>
      <trkpt lat="43.56321" lon="3.71901">
        <ele>60.288</ele>
        <time>2021-01-28T15:06:38Z</time>
      </trkpt>
      <trkpt lat="43.56319" lon="3.71926">
        <ele>59.294</ele>
        <time>2021-01-28T15:06:43Z</time>
      </trkpt>
      <trkpt lat="43.56314" lon="3.71945">
        <ele>58.185</ele>
        <time>2021-01-28T15:06:48Z</time>
      </trkpt>
      <trkpt lat="43.56317" lon="3.71969">
        <ele>58.025</ele>
        <time>2021-01-28T15:06:53Z</time>
      </trkpt>
      <trkpt lat="43.56315" lon="3.72063">
        <ele>58.305</ele>
        <time>2021-01-28T15:07:13Z</time>
      </trkpt>
      <trkpt lat="43.56322" lon="3.72186">
        <ele>57.762</ele>
        <time>2021-01-28T15:07:38Z</time>
      </trkpt>
      <trkpt lat="43.56332" lon="3.7223">
        <ele>57.283</ele>
        <time>2021-01-28T15:07:48Z</time>
      </trkpt>
      <trkpt lat="43.56341" lon="3.72244">
        <ele>57.77</ele>
        <time>2021-01-28T15:09:42Z</time>
      </trkpt>
      <trkpt lat="43.56358" lon="3.72309">
        <ele>58.215</ele>
        <time>2021-01-28T15:10:04Z</time>
      </trkpt>
      <trkpt lat="43.56385" lon="3.72374">
        <ele>58.806</ele>
        <time>2021-01-28T15:10:24Z</time>
      </trkpt>
      <trkpt lat="43.56452" lon="3.72465">
        <ele>58.981</ele>
        <time>2021-01-28T15:10:49Z</time>
      </trkpt>
      <trkpt lat="43.56493" lon="3.72499">
        <ele>59.21</ele>
        <time>2021-01-28T15:10:59Z</time>
      </trkpt>
      <trkpt lat="43.56548" lon="3.72552">
        <ele>60.905</ele>
        <time>2021-01-28T15:11:19Z</time>
      </trkpt>
      <trkpt lat="43.56561" lon="3.72561">
        <ele>61.775</ele>
        <time>2021-01-28T15:11:24Z</time>
      </trkpt>
      <trkpt lat="43.56587" lon="3.72594">
        <ele>63.53</ele>
        <time>2021-01-28T15:11:43Z</time>
      </trkpt>
      <trkpt lat="43.5661" lon="3.72613">
        <ele>64.731</ele>
        <time>2021-01-28T15:11:53Z</time>
      </trkpt>
      <trkpt lat="43.56632" lon="3.72641">
        <ele>65.294</ele>
        <time>2021-01-28T15:12:03Z</time>
      </trkpt>
      <trkpt lat="43.5665" lon="3.72656">
        <ele>65.881</ele>
        <time>2021-01-28T15:12:08Z</time>
      </trkpt>
      <trkpt lat="43.56681" lon="3.72692">
        <ele>66.339</ele>
        <time>2021-01-28T15:12:18Z</time>
      </trkpt>
      <trkpt lat="43.56693" lon="3.72715">
        <ele>66.018</ele>
        <time>2021-01-28T15:12:23Z</time>
      </trkpt>
      <trkpt lat="43.56701" lon="3.72743">
        <ele>65.782</ele>
        <time>2021-01-28T15:12:28Z</time>
      </trkpt>
      <trkpt lat="43.56712" lon="3.72757">
        <ele>65.869</ele>
        <time>2021-01-28T15:12:33Z</time>
      </trkpt>
      <trkpt lat="43.56728" lon="3.72763">
        <ele>66.223</ele>
        <time>2021-01-28T15:12:38Z</time>
      </trkpt>
      <trkpt lat="43.56745" lon="3.72756">
        <ele>66.925</ele>
        <time>2021-01-28T15:12:43Z</time>
      </trkpt>
      <trkpt lat="43.56811" lon="3.72835">
        <ele>67.301</ele>
        <time>2021-01-28T15:13:13Z</time>
      </trkpt>
      <trkpt lat="43.56834" lon="3.7288">
        <ele>67.725</ele>
        <time>2021-01-28T15:13:28Z</time>
      </trkpt>
      <trkpt lat="43.56843" lon="3.72885">
        <ele>68.29</ele>
        <time>2021-01-28T15:13:33Z</time>
      </trkpt>
      <trkpt lat="43.56867" lon="3.7292">
        <ele>69.314</ele>
        <time>2021-01-28T15:13:48Z</time>
      </trkpt>
      <trkpt lat="43.56874" lon="3.72938">
        <ele>69.559</ele>
        <time>2021-01-28T15:13:53Z</time>
      </trkpt>
      <trkpt lat="43.56904" lon="3.72983">
        <ele>69.972</ele>
        <time>2021-01-28T15:14:08Z</time>
      </trkpt>
      <trkpt lat="43.56948" lon="3.73043">
        <ele>70.777</ele>
        <time>2021-01-28T15:14:28Z</time>
      </trkpt>
      <trkpt lat="43.57003" lon="3.73147">
        <ele>71.147</ele>
        <time>2021-01-28T15:15:03Z</time>
      </trkpt>
      <trkpt lat="43.57012" lon="3.7316">
        <ele>71.547</ele>
        <time>2021-01-28T15:15:08Z</time>
      </trkpt>
      <trkpt lat="43.57029" lon="3.73196">
        <ele>71.617</ele>
        <time>2021-01-28T15:15:18Z</time>
      </trkpt>
      <trkpt lat="43.57042" lon="3.7321">
        <ele>71.951</ele>
        <time>2021-01-28T15:15:23Z</time>
      </trkpt>
      <trkpt lat="43.57086" lon="3.7328">
        <ele>70.917</ele>
        <time>2021-01-28T15:15:43Z</time>
      </trkpt>
      <trkpt lat="43.57104" lon="3.7332">
        <ele>70.463</ele>
        <time>2021-01-28T15:15:53Z</time>
      </trkpt>
      <trkpt lat="43.5712" lon="3.73337">
        <ele>70.588</ele>
        <time>2021-01-28T15:15:58Z</time>
      </trkpt>
      <trkpt lat="43.57155" lon="3.73398">
        <ele>69.427</ele>
        <time>2021-01-28T15:16:13Z</time>
      </trkpt>
      <trkpt lat="43.5718" lon="3.73452">
        <ele>67.926</ele>
        <time>2021-01-28T15:16:28Z</time>
      </trkpt>
      <trkpt lat="43.57191" lon="3.73466">
        <ele>67.29</ele>
        <time>2021-01-28T15:16:33Z</time>
      </trkpt>
      <trkpt lat="43.57199" lon="3.73487">
        <ele>66.724</ele>
        <time>2021-01-28T15:16:38Z</time>
      </trkpt>
      <trkpt lat="43.57239" lon="3.73547">
        <ele>68.06</ele>
        <time>2021-01-28T15:16:58Z</time>
      </trkpt>
      <trkpt lat="43.57251" lon="3.73588">
        <ele>68.434</ele>
        <time>2021-01-28T15:17:08Z</time>
      </trkpt>
      <trkpt lat="43.57274" lon="3.73629">
        <ele>68.793</ele>
        <time>2021-01-28T15:17:18Z</time>
      </trkpt>
      <trkpt lat="43.57284" lon="3.73653">
        <ele>68.313</ele>
        <time>2021-01-28T15:17:23Z</time>
      </trkpt>
      <trkpt lat="43.57361" lon="3.73775">
        <ele>67.802</ele>
        <time>2021-01-28T15:17:53Z</time>
      </trkpt>
      <trkpt lat="43.57404" lon="3.73854">
        <ele>66.99</ele>
        <time>2021-01-28T15:18:13Z</time>
      </trkpt>
      <trkpt lat="43.57411" lon="3.73877">
        <ele>66.841</ele>
        <time>2021-01-28T15:18:18Z</time>
      </trkpt>
      <trkpt lat="43.57484" lon="3.73991">
        <ele>68.21</ele>
        <time>2021-01-28T15:18:48Z</time>
      </trkpt>
      <trkpt lat="43.57516" lon="3.74024">
        <ele>68.756</ele>
        <time>2021-01-28T15:18:58Z</time>
      </trkpt>
      <trkpt lat="43.57531" lon="3.74044">
        <ele>68.688</ele>
        <time>2021-01-28T15:19:03Z</time>
      </trkpt>
      <trkpt lat="43.57597" lon="3.74114">
        <ele>69.332</ele>
        <time>2021-01-28T15:19:23Z</time>
      </trkpt>
      <trkpt lat="43.57632" lon="3.74147">
        <ele>69.273</ele>
        <time>2021-01-28T15:19:33Z</time>
      </trkpt>
      <trkpt lat="43.57709" lon="3.74237">
        <ele>64.497</ele>
        <time>2021-01-28T15:19:58Z</time>
      </trkpt>
      <trkpt lat="43.57724" lon="3.74252">
        <ele>64.244</ele>
        <time>2021-01-28T15:20:03Z</time>
      </trkpt>
      <trkpt lat="43.57752" lon="3.74287">
        <ele>63.962</ele>
        <time>2021-01-28T15:20:13Z</time>
      </trkpt>
      <trkpt lat="43.57797" lon="3.74336">
        <ele>67.039</ele>
        <time>2021-01-28T15:20:28Z</time>
      </trkpt>
      <trkpt lat="43.57809" lon="3.74355">
        <ele>68.037</ele>
        <time>2021-01-28T15:20:33Z</time>
      </trkpt>
      <trkpt lat="43.57837" lon="3.74388">
        <ele>70.239</ele>
        <time>2021-01-28T15:20:43Z</time>
      </trkpt>
      <trkpt lat="43.57867" lon="3.74454">
        <ele>69.983</ele>
        <time>2021-01-28T15:20:58Z</time>
      </trkpt>
      <trkpt lat="43.57889" lon="3.74495">
        <ele>69.32</ele>
        <time>2021-01-28T15:21:08Z</time>
      </trkpt>
      <trkpt lat="43.57908" lon="3.74543">
        <ele>68.26</ele>
        <time>2021-01-28T15:21:18Z</time>
      </trkpt>
      <trkpt lat="43.5793" lon="3.74586">
        <ele>67.088</ele>
        <time>2021-01-28T15:21:28Z</time>
      </trkpt>
      <trkpt lat="43.57947" lon="3.74609">
        <ele>67.113</ele>
        <time>2021-01-28T15:21:33Z</time>
      </trkpt>
      <trkpt lat="43.57979" lon="3.74681">
        <ele>64.845</ele>
        <time>2021-01-28T15:21:48Z</time>
      </trkpt>
      <trkpt lat="43.57996" lon="3.74726">
        <ele>64.111</ele>
        <time>2021-01-28T15:21:58Z</time>
      </trkpt>
      <trkpt lat="43.58071" lon="3.74882">
        <ele>64.8</ele>
        <time>2021-01-28T15:22:33Z</time>
      </trkpt>
      <trkpt lat="43.58128" lon="3.75016">
        <ele>65.015</ele>
        <time>2021-01-28T15:22:58Z</time>
      </trkpt>
      <trkpt lat="43.58141" lon="3.75036">
        <ele>65.595</ele>
        <time>2021-01-28T15:23:03Z</time>
      </trkpt>
      <trkpt lat="43.58208" lon="3.75196">
        <ele>61.895</ele>
        <time>2021-01-28T15:23:33Z</time>
      </trkpt>
      <trkpt lat="43.58235" lon="3.75248">
        <ele>60.37</ele>
        <time>2021-01-28T15:23:43Z</time>
      </trkpt>
      <trkpt lat="43.58257" lon="3.753">
        <ele>59.71</ele>
        <time>2021-01-28T15:23:53Z</time>
      </trkpt>
      <trkpt lat="43.58266" lon="3.75332">
        <ele>59.257</ele>
        <time>2021-01-28T15:23:58Z</time>
      </trkpt>
      <trkpt lat="43.58303" lon="3.75411">
        <ele>58.635</ele>
        <time>2021-01-28T15:24:13Z</time>
      </trkpt>
      <trkpt lat="43.58351" lon="3.7553">
        <ele>58.733</ele>
        <time>2021-01-28T15:24:33Z</time>
      </trkpt>
      <trkpt lat="43.58402" lon="3.75619">
        <ele>59.35</ele>
        <time>2021-01-28T15:24:53Z</time>
      </trkpt>
      <trkpt lat="43.58417" lon="3.75668">
        <ele>59.237</ele>
        <time>2021-01-28T15:25:03Z</time>
      </trkpt>
      <trkpt lat="43.58429" lon="3.75695">
        <ele>59.341</ele>
        <time>2021-01-28T15:25:08Z</time>
      </trkpt>
      <trkpt lat="43.58442" lon="3.75717">
        <ele>59.583</ele>
        <time>2021-01-28T15:25:13Z</time>
      </trkpt>
      <trkpt lat="43.58455" lon="3.75731">
        <ele>59.938</ele>
        <time>2021-01-28T15:25:18Z</time>
      </trkpt>
      <trkpt lat="43.58459" lon="3.7575">
        <ele>59.539</ele>
        <time>2021-01-28T15:25:23Z</time>
      </trkpt>
      <trkpt lat="43.58469" lon="3.75753">
        <ele>60.067</ele>
        <time>2021-01-28T15:25:28Z</time>
      </trkpt>
      <trkpt lat="43.58475" lon="3.75763">
        <ele>60.021</ele>
        <time>2021-01-28T15:25:37Z</time>
      </trkpt>
      <trkpt lat="43.5847" lon="3.75776">
        <ele>59.271</ele>
        <time>2021-01-28T15:25:42Z</time>
      </trkpt>
      <trkpt lat="43.58473" lon="3.75792">
        <ele>58.811</ele>
        <time>2021-01-28T15:25:47Z</time>
      </trkpt>
      <trkpt lat="43.58487" lon="3.7583">
        <ele>58.864</ele>
        <time>2021-01-28T15:25:57Z</time>
      </trkpt>
      <trkpt lat="43.58502" lon="3.75857">
        <ele>59.191</ele>
        <time>2021-01-28T15:26:13Z</time>
      </trkpt>
      <trkpt lat="43.58535" lon="3.75938">
        <ele>59.383</ele>
        <time>2021-01-28T15:26:38Z</time>
      </trkpt>
      <trkpt lat="43.58544" lon="3.75955">
        <ele>59.486</ele>
        <time>2021-01-28T15:26:43Z</time>
      </trkpt>
      <trkpt lat="43.5856" lon="3.75975">
        <ele>59.877</ele>
        <time>2021-01-28T15:26:48Z</time>
      </trkpt>
      <trkpt lat="43.58581" lon="3.76035">
        <ele>59.064</ele>
        <time>2021-01-28T15:27:03Z</time>
      </trkpt>
      <trkpt lat="43.58592" lon="3.76055">
        <ele>59.008</ele>
        <time>2021-01-28T15:27:08Z</time>
      </trkpt>
      <trkpt lat="43.58607" lon="3.76104">
        <ele>58.482</ele>
        <time>2021-01-28T15:27:18Z</time>
      </trkpt>
      <trkpt lat="43.58651" lon="3.76196">
        <ele>57.268</ele>
        <time>2021-01-28T15:27:38Z</time>
      </trkpt>
      <trkpt lat="43.58667" lon="3.76239">
        <ele>56.676</ele>
        <time>2021-01-28T15:27:48Z</time>
      </trkpt>
      <trkpt lat="43.58677" lon="3.76257">
        <ele>56.674</ele>
        <time>2021-01-28T15:27:53Z</time>
      </trkpt>
      <trkpt lat="43.58689" lon="3.76271">
        <ele>56.796</ele>
        <time>2021-01-28T15:27:58Z</time>
      </trkpt>
      <trkpt lat="43.58705" lon="3.76299">
        <ele>56.609</ele>
        <time>2021-01-28T15:28:08Z</time>
      </trkpt>
      <trkpt lat="43.58704" lon="3.76316">
        <ele>56.324</ele>
        <time>2021-01-28T15:28:13Z</time>
      </trkpt>
      <trkpt lat="43.58707" lon="3.76336">
        <ele>56.079</ele>
        <time>2021-01-28T15:28:18Z</time>
      </trkpt>
      <trkpt lat="43.58737" lon="3.76394">
        <ele>55.976</ele>
        <time>2021-01-28T15:28:39Z</time>
      </trkpt>
      <trkpt lat="43.58751" lon="3.76432">
        <ele>55.79</ele>
        <time>2021-01-28T15:28:49Z</time>
      </trkpt>
      <trkpt lat="43.5878" lon="3.76485">
        <ele>55.95</ele>
        <time>2021-01-28T15:29:04Z</time>
      </trkpt>
      <trkpt lat="43.58801" lon="3.76535">
        <ele>55.927</ele>
        <time>2021-01-28T15:29:19Z</time>
      </trkpt>
      <trkpt lat="43.58805" lon="3.7655">
        <ele>56.01</ele>
        <time>2021-01-28T15:29:24Z</time>
      </trkpt>
      <trkpt lat="43.58819" lon="3.76581">
        <ele>56.335</ele>
        <time>2021-01-28T15:29:34Z</time>
      </trkpt>
      <trkpt lat="43.58833" lon="3.76631">
        <ele>56.509</ele>
        <time>2021-01-28T15:29:50Z</time>
      </trkpt>
      <trkpt lat="43.58845" lon="3.76634">
        <ele>56.908</ele>
        <time>2021-01-28T15:29:55Z</time>
      </trkpt>
      <trkpt lat="43.58934" lon="3.76635">
        <ele>57.963</ele>
        <time>2021-01-28T15:30:20Z</time>
      </trkpt>
      <trkpt lat="43.58972" lon="3.76629">
        <ele>58.502</ele>
        <time>2021-01-28T15:30:30Z</time>
      </trkpt>
      <trkpt lat="43.5899" lon="3.76642">
        <ele>58.374</ele>
        <time>2021-01-28T15:30:35Z</time>
      </trkpt>
      <trkpt lat="43.59038" lon="3.76688">
        <ele>57.235</ele>
        <time>2021-01-28T15:30:55Z</time>
      </trkpt>
      <trkpt lat="43.59058" lon="3.76717">
        <ele>57.685</ele>
        <time>2021-01-28T15:31:05Z</time>
      </trkpt>
      <trkpt lat="43.59068" lon="3.76725">
        <ele>57.91</ele>
        <time>2021-01-28T15:31:10Z</time>
      </trkpt>
      <trkpt lat="43.5909" lon="3.76733">
        <ele>59.208</ele>
        <time>2021-01-28T15:31:20Z</time>
      </trkpt>
      <trkpt lat="43.59102" lon="3.76734">
        <ele>60.051</ele>
        <time>2021-01-28T15:31:25Z</time>
      </trkpt>
      <trkpt lat="43.59132" lon="3.76746">
        <ele>62.755</ele>
        <time>2021-01-28T15:31:42Z</time>
      </trkpt>
      <trkpt lat="43.59161" lon="3.76781">
        <ele>65.28</ele>
        <time>2021-01-28T15:32:07Z</time>
      </trkpt>
      <trkpt lat="43.59176" lon="3.76813">
        <ele>66.47</ele>
        <time>2021-01-28T15:32:25Z</time>
      </trkpt>
      <trkpt lat="43.59181" lon="3.76838">
        <ele>66.891</ele>
        <time>2021-01-28T15:32:36Z</time>
      </trkpt>
      <trkpt lat="43.59197" lon="3.76865">
        <ele>67.645</ele>
        <time>2021-01-28T15:32:46Z</time>
      </trkpt>
      <trkpt lat="43.59265" lon="3.76908">
        <ele>71.345</ele>
        <time>2021-01-28T15:33:16Z</time>
      </trkpt>
      <trkpt lat="43.59302" lon="3.76915">
        <ele>73.526</ele>
        <time>2021-01-28T15:33:31Z</time>
      </trkpt>
      <trkpt lat="43.59322" lon="3.76932">
        <ele>74.149</ele>
        <time>2021-01-28T15:33:41Z</time>
      </trkpt>
      <trkpt lat="43.5934" lon="3.76958">
        <ele>74.604</ele>
        <time>2021-01-28T15:33:51Z</time>
      </trkpt>
      <trkpt lat="43.59364" lon="3.76978">
        <ele>75.423</ele>
        <time>2021-01-28T15:34:01Z</time>
      </trkpt>
      <trkpt lat="43.59444" lon="3.77021">
        <ele>75.035</ele>
        <time>2021-01-28T15:34:31Z</time>
      </trkpt>
      <trkpt lat="43.59461" lon="3.77035">
        <ele>74.595</ele>
        <time>2021-01-28T15:34:36Z</time>
      </trkpt>
      <trkpt lat="43.59504" lon="3.77056">
        <ele>73.212</ele>
        <time>2021-01-28T15:34:46Z</time>
      </trkpt>
      <trkpt lat="43.59555" lon="3.77087">
        <ele>72.413</ele>
        <time>2021-01-28T15:35:01Z</time>
      </trkpt>
      <trkpt lat="43.59572" lon="3.771">
        <ele>71.866</ele>
        <time>2021-01-28T15:35:06Z</time>
      </trkpt>
      <trkpt lat="43.59593" lon="3.77107">
        <ele>71.521</ele>
        <time>2021-01-28T15:35:11Z</time>
      </trkpt>
      <trkpt lat="43.59721" lon="3.77177">
        <ele>68.215</ele>
        <time>2021-01-28T15:35:46Z</time>
      </trkpt>
      <trkpt lat="43.59753" lon="3.77206">
        <ele>67.956</ele>
        <time>2021-01-28T15:35:56Z</time>
      </trkpt>
      <trkpt lat="43.5978" lon="3.77239">
        <ele>68.027</ele>
        <time>2021-01-28T15:36:06Z</time>
      </trkpt>
      <trkpt lat="43.59844" lon="3.77283">
        <ele>70.864</ele>
        <time>2021-01-28T15:36:26Z</time>
      </trkpt>
      <trkpt lat="43.59935" lon="3.77405">
        <ele>72.711</ele>
        <time>2021-01-28T15:37:11Z</time>
      </trkpt>
      <trkpt lat="43.59945" lon="3.77415">
        <ele>72.565</ele>
        <time>2021-01-28T15:37:16Z</time>
      </trkpt>
      <trkpt lat="43.59964" lon="3.77426">
        <ele>72.292</ele>
        <time>2021-01-28T15:37:26Z</time>
      </trkpt>
      <trkpt lat="43.60004" lon="3.77471">
        <ele>69.989</ele>
        <time>2021-01-28T15:38:10Z</time>
      </trkpt>
      <trkpt lat="43.60027" lon="3.77492">
        <ele>68.84</ele>
        <time>2021-01-28T15:38:15Z</time>
      </trkpt>
      <trkpt lat="43.60071" lon="3.77521">
        <ele>67.201</ele>
        <time>2021-01-28T15:38:25Z</time>
      </trkpt>
      <trkpt lat="43.60082" lon="3.77551">
        <ele>65.808</ele>
        <time>2021-01-28T15:38:30Z</time>
      </trkpt>
      <trkpt lat="43.60104" lon="3.77585">
        <ele>63.854</ele>
        <time>2021-01-28T15:38:35Z</time>
      </trkpt>
      <trkpt lat="43.6013" lon="3.77618">
        <ele>61.012</ele>
        <time>2021-01-28T15:38:40Z</time>
      </trkpt>
      <trkpt lat="43.60156" lon="3.77645">
        <ele>59.309</ele>
        <time>2021-01-28T15:38:45Z</time>
      </trkpt>
      <trkpt lat="43.60241" lon="3.77701">
        <ele>56.434</ele>
        <time>2021-01-28T15:39:00Z</time>
      </trkpt>
      <trkpt lat="43.60341" lon="3.77744">
        <ele>56.431</ele>
        <time>2021-01-28T15:39:20Z</time>
      </trkpt>
      <trkpt lat="43.60379" lon="3.77755">
        <ele>57.776</ele>
        <time>2021-01-28T15:39:30Z</time>
      </trkpt>
      <trkpt lat="43.6042" lon="3.77807">
        <ele>61.387</ele>
        <time>2021-01-28T15:39:50Z</time>
      </trkpt>
      <trkpt lat="43.60448" lon="3.77848">
        <ele>62.499</ele>
        <time>2021-01-28T15:40:05Z</time>
      </trkpt>
      <trkpt lat="43.60479" lon="3.77908">
        <ele>62.244</ele>
        <time>2021-01-28T15:40:25Z</time>
      </trkpt>
      <trkpt lat="43.60507" lon="3.77955">
        <ele>62.423</ele>
        <time>2021-01-28T15:40:40Z</time>
      </trkpt>
      <trkpt lat="43.60533" lon="3.77986">
        <ele>63.145</ele>
        <time>2021-01-28T15:40:50Z</time>
      </trkpt>
      <trkpt lat="43.60553" lon="3.78012">
        <ele>63.71</ele>
        <time>2021-01-28T15:41:00Z</time>
      </trkpt>
      <trkpt lat="43.60555" lon="3.78025">
        <ele>63.945</ele>
        <time>2021-01-28T15:41:05Z</time>
      </trkpt>
      <trkpt lat="43.60553" lon="3.78039">
        <ele>64.018</ele>
        <time>2021-01-28T15:41:10Z</time>
      </trkpt>
      <trkpt lat="43.60585" lon="3.78203">
        <ele>65.224</ele>
        <time>2021-01-28T15:41:50Z</time>
      </trkpt>
      <trkpt lat="43.60601" lon="3.78251">
        <ele>65.951</ele>
        <time>2021-01-28T15:42:05Z</time>
      </trkpt>
      <trkpt lat="43.60616" lon="3.78285">
        <ele>66</ele>
        <time>2021-01-28T15:42:15Z</time>
      </trkpt>
      <trkpt lat="43.60645" lon="3.78335">
        <ele>66.488</ele>
        <time>2021-01-28T15:42:30Z</time>
      </trkpt>
      <trkpt lat="43.60643" lon="3.78365">
        <ele>66.448</ele>
        <time>2021-01-28T15:43:10Z</time>
      </trkpt>
      <trkpt lat="43.60648" lon="3.78378">
        <ele>66.563</ele>
        <time>2021-01-28T15:43:15Z</time>
      </trkpt>
      <trkpt lat="43.6066" lon="3.78386">
        <ele>66.781</ele>
        <time>2021-01-28T15:43:20Z</time>
      </trkpt>
      <trkpt lat="43.60669" lon="3.78398">
        <ele>66.756</ele>
        <time>2021-01-28T15:43:25Z</time>
      </trkpt>
      <trkpt lat="43.60692" lon="3.78445">
        <ele>66.564</ele>
        <time>2021-01-28T15:43:42Z</time>
      </trkpt>
      <trkpt lat="43.60721" lon="3.78487">
        <ele>67.149</ele>
        <time>2021-01-28T15:43:57Z</time>
      </trkpt>
      <trkpt lat="43.60734" lon="3.78524">
        <ele>67.775</ele>
        <time>2021-01-28T15:44:07Z</time>
      </trkpt>
      <trkpt lat="43.60752" lon="3.78559">
        <ele>68.744</ele>
        <time>2021-01-28T15:44:17Z</time>
      </trkpt>
      <trkpt lat="43.60762" lon="3.78593">
        <ele>69.89</ele>
        <time>2021-01-28T15:44:27Z</time>
      </trkpt>
      <trkpt lat="43.60792" lon="3.78659">
        <ele>72.213</ele>
        <time>2021-01-28T15:44:47Z</time>
      </trkpt>
      <trkpt lat="43.6081" lon="3.78689">
        <ele>72.896</ele>
        <time>2021-01-28T15:44:57Z</time>
      </trkpt>
      <trkpt lat="43.60835" lon="3.78754">
        <ele>74.563</ele>
        <time>2021-01-28T15:45:17Z</time>
      </trkpt>
      <trkpt lat="43.60861" lon="3.78818">
        <ele>77.781</ele>
        <time>2021-01-28T15:45:37Z</time>
      </trkpt>
      <trkpt lat="43.60877" lon="3.7884">
        <ele>79.564</ele>
        <time>2021-01-28T15:45:47Z</time>
      </trkpt>
      <trkpt lat="43.60886" lon="3.78873">
        <ele>81.557</ele>
        <time>2021-01-28T15:45:57Z</time>
      </trkpt>
      <trkpt lat="43.60884" lon="3.78908">
        <ele>82.374</ele>
        <time>2021-01-28T15:46:07Z</time>
      </trkpt>
      <trkpt lat="43.60871" lon="3.78939">
        <ele>82.581</ele>
        <time>2021-01-28T15:46:17Z</time>
      </trkpt>
      <trkpt lat="43.6085" lon="3.79096">
        <ele>80.746</ele>
        <time>2021-01-28T15:46:47Z</time>
      </trkpt>
      <trkpt lat="43.60837" lon="3.79262">
        <ele>74.458</ele>
        <time>2021-01-28T15:47:02Z</time>
      </trkpt>
      <trkpt lat="43.60838" lon="3.79328">
        <ele>70.813</ele>
        <time>2021-01-28T15:47:07Z</time>
      </trkpt>
      <trkpt lat="43.6085" lon="3.79469">
        <ele>68.708</ele>
        <time>2021-01-28T15:47:17Z</time>
      </trkpt>
      <trkpt lat="43.60859" lon="3.79537">
        <ele>66.479</ele>
        <time>2021-01-28T15:47:22Z</time>
      </trkpt>
      <trkpt lat="43.60871" lon="3.79602">
        <ele>62.615</ele>
        <time>2021-01-28T15:47:27Z</time>
      </trkpt>
      <trkpt lat="43.60898" lon="3.79726">
        <ele>57.686</ele>
        <time>2021-01-28T15:47:37Z</time>
      </trkpt>
      <trkpt lat="43.60916" lon="3.79787">
        <ele>54.873</ele>
        <time>2021-01-28T15:47:42Z</time>
      </trkpt>
      <trkpt lat="43.60926" lon="3.79843">
        <ele>52.807</ele>
        <time>2021-01-28T15:47:47Z</time>
      </trkpt>
      <trkpt lat="43.60959" lon="3.79953">
        <ele>48.798</ele>
        <time>2021-01-28T15:47:57Z</time>
      </trkpt>
      <trkpt lat="43.60979" lon="3.80097">
        <ele>50.07</ele>
        <time>2021-01-28T15:48:17Z</time>
      </trkpt>
      <trkpt lat="43.60987" lon="3.80124">
        <ele>50.24</ele>
        <time>2021-01-28T15:48:22Z</time>
      </trkpt>
      <trkpt lat="43.60989" lon="3.80145">
        <ele>50.355</ele>
        <time>2021-01-28T15:48:27Z</time>
      </trkpt>
      <trkpt lat="43.60994" lon="3.80161">
        <ele>50.605</ele>
        <time>2021-01-28T15:48:43Z</time>
      </trkpt>
      <trkpt lat="43.61023" lon="3.80329">
        <ele>53.995</ele>
        <time>2021-01-28T15:49:13Z</time>
      </trkpt>
      <trkpt lat="43.61055" lon="3.8041">
        <ele>54.803</ele>
        <time>2021-01-28T15:49:33Z</time>
      </trkpt>
      <trkpt lat="43.61076" lon="3.80452">
        <ele>54.92</ele>
        <time>2021-01-28T15:49:43Z</time>
      </trkpt>
      <trkpt lat="43.61083" lon="3.80478">
        <ele>54.408</ele>
        <time>2021-01-28T15:49:53Z</time>
      </trkpt>
      <trkpt lat="43.61117" lon="3.80544">
        <ele>53.281</ele>
        <time>2021-01-28T15:50:13Z</time>
      </trkpt>
      <trkpt lat="43.6113" lon="3.80578">
        <ele>52.34</ele>
        <time>2021-01-28T15:50:23Z</time>
      </trkpt>
      <trkpt lat="43.61164" lon="3.80643">
        <ele>51.758</ele>
        <time>2021-01-28T15:50:38Z</time>
      </trkpt>
      <trkpt lat="43.61187" lon="3.80696">
        <ele>51.327</ele>
        <time>2021-01-28T15:50:53Z</time>
      </trkpt>
      <trkpt lat="43.61214" lon="3.8075">
        <ele>51.702</ele>
        <time>2021-01-28T15:51:08Z</time>
      </trkpt>
      <trkpt lat="43.61227" lon="3.80804">
        <ele>51.443</ele>
        <time>2021-01-28T15:51:23Z</time>
      </trkpt>
      <trkpt lat="43.61243" lon="3.80823">
        <ele>51.867</ele>
        <time>2021-01-28T15:51:28Z</time>
      </trkpt>
      <trkpt lat="43.61274" lon="3.80904">
        <ele>52.471</ele>
        <time>2021-01-28T15:51:43Z</time>
      </trkpt>
      <trkpt lat="43.61283" lon="3.80922">
        <ele>52.621</ele>
        <time>2021-01-28T15:51:48Z</time>
      </trkpt>
      <trkpt lat="43.6129" lon="3.80948">
        <ele>52.471</ele>
        <time>2021-01-28T15:51:53Z</time>
      </trkpt>
      <trkpt lat="43.61293" lon="3.80979">
        <ele>52.192</ele>
        <time>2021-01-28T15:51:58Z</time>
      </trkpt>
      <trkpt lat="43.61308" lon="3.81042">
        <ele>49.811</ele>
        <time>2021-01-28T15:52:08Z</time>
      </trkpt>
      <trkpt lat="43.6132" lon="3.811">
        <ele>48.554</ele>
        <time>2021-01-28T15:52:18Z</time>
      </trkpt>
      <trkpt lat="43.61329" lon="3.81116">
        <ele>48.568</ele>
        <time>2021-01-28T15:52:23Z</time>
      </trkpt>
      <trkpt lat="43.61346" lon="3.81123">
        <ele>48.917</ele>
        <time>2021-01-28T15:52:28Z</time>
      </trkpt>
      <trkpt lat="43.6136" lon="3.81111">
        <ele>47</ele>
        <time>2021-01-28T15:52:33Z</time>
      </trkpt>
      <trkpt lat="43.61379" lon="3.81092">
        <ele>48.8</ele>
        <time>2021-01-28T15:52:38Z</time>
      </trkpt>
      <trkpt lat="43.61395" lon="3.81094">
        <ele>49.2</ele>
        <time>2021-01-28T15:52:43Z</time>
      </trkpt>
      <trkpt lat="43.61399" lon="3.81124">
        <ele>49.1</ele>
        <time>2021-01-28T15:52:58Z</time>
      </trkpt>
      <trkpt lat="43.61384" lon="3.81146">
        <ele>47.6</ele>
        <time>2021-01-28T15:53:03Z</time>
      </trkpt>
      <trkpt lat="43.61402" lon="3.81149">
        <ele>48.6</ele>
      </trkpt>
      <trkpt lat="43.614" lon="3.81197">
        <ele>47.4</ele>
        <time>2021-01-28T15:53:23Z</time>
      </trkpt>
      <trkpt lat="43.61404" lon="3.81289">
        <ele>45.2</ele>
        <time>2021-01-28T15:53:28Z</time>
      </trkpt>
      <trkpt lat="43.61419" lon="3.8133">
        <ele>48.665</ele>
        <time>2021-01-28T15:53:33Z</time>
      </trkpt>
      <trkpt lat="43.6144" lon="3.81454">
        <ele>46.399</ele>
        <time>2021-01-28T15:53:48Z</time>
      </trkpt>
      <trkpt lat="43.61451" lon="3.81493">
        <ele>45.103</ele>
        <time>2021-01-28T15:53:53Z</time>
      </trkpt>
      <trkpt lat="43.61471" lon="3.81534">
        <ele>43.65</ele>
        <time>2021-01-28T15:54:03Z</time>
      </trkpt>
      <trkpt lat="43.61474" lon="3.81547">
        <ele>43.245</ele>
        <time>2021-01-28T15:54:09Z</time>
      </trkpt>
      <trkpt lat="43.61484" lon="3.81562">
        <ele>42.834</ele>
        <time>2021-01-28T15:54:14Z</time>
      </trkpt>
      <trkpt lat="43.6149" lon="3.81581">
        <ele>42.002</ele>
        <time>2021-01-28T15:54:19Z</time>
      </trkpt>
      <trkpt lat="43.61496" lon="3.81625">
        <ele>40.297</ele>
        <time>2021-01-28T15:54:29Z</time>
      </trkpt>
      <trkpt lat="43.6151" lon="3.81671">
        <ele>39.317</ele>
        <time>2021-01-28T15:54:39Z</time>
      </trkpt>
      <trkpt lat="43.61532" lon="3.81773">
        <ele>39.447</ele>
        <time>2021-01-28T15:54:59Z</time>
      </trkpt>
      <trkpt lat="43.61549" lon="3.81823">
        <ele>40.166</ele>
        <time>2021-01-28T15:55:09Z</time>
      </trkpt>
      <trkpt lat="43.61551" lon="3.81843">
        <ele>40.41</ele>
        <time>2021-01-28T15:55:14Z</time>
      </trkpt>
      <trkpt lat="43.61563" lon="3.8188">
        <ele>40.971</ele>
        <time>2021-01-28T15:55:24Z</time>
      </trkpt>
      <trkpt lat="43.61574" lon="3.81932">
        <ele>41</ele>
        <time>2021-01-28T15:55:39Z</time>
      </trkpt>
      <trkpt lat="43.6158" lon="3.81943">
        <ele>41.257</ele>
        <time>2021-01-28T15:55:44Z</time>
      </trkpt>
      <trkpt lat="43.61581" lon="3.81956">
        <ele>41.553</ele>
        <time>2021-01-28T15:55:49Z</time>
      </trkpt>
      <trkpt lat="43.61562" lon="3.81972">
        <ele>41.615</ele>
        <time>2021-01-28T15:55:59Z</time>
      </trkpt>
      <trkpt lat="43.61553" lon="3.81986">
        <ele>41.48</ele>
        <time>2021-01-28T15:56:04Z</time>
      </trkpt>
      <trkpt lat="43.61552" lon="3.82006">
        <ele>41.795</ele>
        <time>2021-01-28T15:56:09Z</time>
      </trkpt>
      <trkpt lat="43.61559" lon="3.82036">
        <ele>42.596</ele>
        <time>2021-01-28T15:56:56Z</time>
      </trkpt>
      <trkpt lat="43.61549" lon="3.82065">
        <ele>43.065</ele>
        <time>2021-01-28T15:57:06Z</time>
      </trkpt>
      <trkpt lat="43.61554" lon="3.8211">
        <ele>44.62</ele>
        <time>2021-01-28T15:57:16Z</time>
      </trkpt>
      <trkpt lat="43.61544" lon="3.8214">
        <ele>45.403</ele>
        <time>2021-01-28T15:58:06Z</time>
      </trkpt>
      <trkpt lat="43.61545" lon="3.82156">
        <ele>45.945</ele>
        <time>2021-01-28T15:58:11Z</time>
      </trkpt>
      <trkpt lat="43.61536" lon="3.82167">
        <ele>46.115</ele>
        <time>2021-01-28T15:58:16Z</time>
      </trkpt>
      <trkpt lat="43.61528" lon="3.82187">
        <ele>46.468</ele>
        <time>2021-01-28T15:58:21Z</time>
      </trkpt>
      <trkpt lat="43.61523" lon="3.82207">
        <ele>46.758</ele>
        <time>2021-01-28T15:58:26Z</time>
      </trkpt>
      <trkpt lat="43.61523" lon="3.82257">
        <ele>48.2</ele>
        <time>2021-01-28T15:58:36Z</time>
      </trkpt>
      <trkpt lat="43.61509" lon="3.82368">
        <ele>53.104</ele>
        <time>2021-01-28T15:59:06Z</time>
      </trkpt>
      <trkpt lat="43.61507" lon="3.82405">
        <ele>54.719</ele>
        <time>2021-01-28T15:59:16Z</time>
      </trkpt>
      <trkpt lat="43.61501" lon="3.82439">
        <ele>56.015</ele>
        <time>2021-01-28T15:59:26Z</time>
      </trkpt>
      <trkpt lat="43.61495" lon="3.82457">
        <ele>56.502</ele>
        <time>2021-01-28T15:59:31Z</time>
      </trkpt>
      <trkpt lat="43.61491" lon="3.82493">
        <ele>57.813</ele>
        <time>2021-01-28T15:59:41Z</time>
      </trkpt>
      <trkpt lat="43.61495" lon="3.82531">
        <ele>58.696</ele>
        <time>2021-01-28T15:59:51Z</time>
      </trkpt>
      <trkpt lat="43.61501" lon="3.82564">
        <ele>59.444</ele>
        <time>2021-01-28T16:00:02Z</time>
      </trkpt>
      <trkpt lat="43.61513" lon="3.82584">
        <ele>60.219</ele>
        <time>2021-01-28T16:00:21Z</time>
      </trkpt>
    </trkseg>
  </trk>
</gpx>